PWSweather.com
Personal Weather Stations
Station Observations
KCOFALCO8
Falcon Hills, Falcon, CO 80831

Falcon HillsFalcon, CO 80831

Lat: 38.979792, Lon: -104.61195

Elevation: 7170

Station Type: AcuRite Pro 5-in-1

http://wx.frazierhome.net/

Latest ConditionsUpdated 11:25:05 AM MST Tuesday, Nov 12, 2019
Currently Today's Max Today's Min Today's Average
Temperature 50.7°F10.4°C 50.9°F10.5°C 13.5°F-10.3°C 25.6°F-3.6°C
Dew Point 21.0°F-6.1°C 23.0°F-5.0°C 11.8°F-11.2°C 17.3°F-8.2°C
Winds 3.0 mph S4.8 kmh S 6.0 mph -9.7 kmh - - 1.7 mph 2.7 kmh
Wind Gusts -- -- - -
Humidity 31% 98% 31% 76%
Pressure 30.14 in1020.7 mb 30.30 in1026.1 mb 30.14 in1020.7 mb -
Hour Temp Dew Point Humidity Winds Wind Gusts Pressure Precip Precip Rate Daily Precip Total
11:25 AM 50.7°F10.4°C 21.0°F-6.1°C 31% 3.0 mph S4.8 kmh S -- 30.14 in1020.7 mb 0.00 in0.0 mm 0.00 in0.0 mm 0.00 in0.0 mm
11:24 AM 50.9°F10.5°C 21.1°F-6.1°C 31% 4.0 mph ESE6.4 kmh ESE -- 30.14 in1020.7 mb 0.00 in0.0 mm 0.00 in0.0 mm 0.00 in0.0 mm
11:23 AM 50.5°F10.3°C 20.8°F-6.2°C 31% 3.0 mph SE4.8 kmh SE -- 30.14 in1020.7 mb 0.00 in0.0 mm 0.00 in0.0 mm 0.00 in0.0 mm
11:22 AM 50.5°F10.3°C 21.6°F-5.8°C 32% 3.0 mph S4.8 kmh S -- 30.14 in1020.7 mb 0.00 in0.0 mm 0.00 in0.0 mm 0.00 in0.0 mm
11:21 AM 50.1°F10.1°C 22.7°F-5.2°C 34% 3.0 mph SSE4.8 kmh SSE -- 30.14 in1020.7 mb 0.00 in0.0 mm 0.00 in0.0 mm 0.00 in0.0 mm
11:20 AM 49.8°F9.9°C 22.4°F-5.3°C 34% 3.0 mph ESE4.8 kmh ESE -- 30.14 in1020.7 mb 0.00 in0.0 mm 0.00 in0.0 mm 0.00 in0.0 mm
11:18 AM 49.4°F9.7°C 22.0°F-5.6°C 34% 3.0 mph SSE4.8 kmh SSE -- 30.14 in1020.7 mb 0.00 in0.0 mm 0.00 in0.0 mm 0.00 in0.0 mm
11:17 AM 49.6°F9.8°C 22.9°F-5.1°C 35% 4.0 mph ESE6.4 kmh ESE -- 30.14 in1020.7 mb 0.00 in0.0 mm 0.00 in0.0 mm 0.00 in0.0 mm
11:16 AM 49.0°F9.4°C 22.3°F-5.4°C 35% 3.0 mph ESE4.8 kmh ESE -- 30.14 in1020.7 mb 0.00 in0.0 mm 0.00 in0.0 mm 0.00 in0.0 mm
11:15 AM 48.9°F9.4°C 22.3°F-5.4°C 35% 3.0 mph ESE4.8 kmh ESE -- 30.14 in1020.7 mb 0.00 in0.0 mm 0.00 in0.0 mm 0.00 in0.0 mm
11:14 AM 49.2°F9.6°C 21.9°F-5.6°C 34% 5.0 mph SSE8.0 kmh SSE -- 30.14 in1020.7 mb 0.00 in0.0 mm 0.00 in0.0 mm 0.00 in0.0 mm
11:13 AM 49.8°F9.9°C 22.4°F-5.3°C 34% 5.0 mph SSE8.0 kmh SSE -- 30.14 in1020.7 mb 0.00 in0.0 mm 0.00 in0.0 mm 0.00 in0.0 mm
11:11 AM 50.1°F10.1°C 22.7°F-5.2°C 34% 6.0 mph SE9.7 kmh SE -- 30.14 in1020.7 mb 0.00 in0.0 mm 0.00 in0.0 mm 0.00 in0.0 mm
11:10 AM 49.8°F9.9°C 22.4°F-5.3°C 34% 3.0 mph ESE4.8 kmh ESE -- 30.15 in1021.0 mb 0.00 in0.0 mm 0.00 in0.0 mm 0.00 in0.0 mm
11:09 AM 49.6°F9.8°C 22.2°F-5.4°C 34% 4.0 mph ESE6.4 kmh ESE -- 30.15 in1021.0 mb 0.00 in0.0 mm 0.00 in0.0 mm 0.00 in0.0 mm
11:08 AM 49.8°F9.9°C 22.4°F-5.3°C 34% 5.0 mph SE8.0 kmh SE -- 30.15 in1021.0 mb 0.00 in0.0 mm 0.00 in0.0 mm 0.00 in0.0 mm
11:07 AM 49.6°F9.8°C 22.2°F-5.4°C 34% 3.0 mph ESE4.8 kmh ESE -- 30.15 in1021.0 mb 0.00 in0.0 mm 0.00 in0.0 mm 0.00 in0.0 mm
11:06 AM 49.8°F9.9°C 22.4°F-5.3°C 34% 3.0 mph SE4.8 kmh SE -- 30.15 in1021.0 mb 0.00 in0.0 mm 0.00 in0.0 mm 0.00 in0.0 mm
11:05 AM 49.8°F9.9°C 22.4°F-5.3°C 34% 4.0 mph ESE6.4 kmh ESE -- 30.15 in1021.0 mb 0.00 in0.0 mm 0.00 in0.0 mm 0.00 in0.0 mm
11:04 AM 49.8°F9.9°C 22.4°F-5.3°C 34% 4.0 mph SE6.4 kmh SE -- 30.15 in1021.0 mb 0.00 in0.0 mm 0.00 in0.0 mm 0.00 in0.0 mm
11:03 AM 50.0°F10.0°C 22.5°F-5.3°C 34% 4.0 mph ESE6.4 kmh ESE -- 30.15 in1021.0 mb 0.00 in0.0 mm 0.00 in0.0 mm 0.00 in0.0 mm
11:02 AM 49.4°F9.7°C 22.0°F-5.6°C 34% 5.0 mph ESE8.0 kmh ESE -- 30.15 in1021.0 mb 0.00 in0.0 mm 0.00 in0.0 mm 0.00 in0.0 mm
11:01 AM 49.2°F9.6°C 21.9°F-5.6°C 34% 1.0 mph SSW1.6 kmh SSW -- 30.15 in1021.0 mb 0.00 in0.0 mm 0.00 in0.0 mm 0.00 in0.0 mm
11:00 AM 48.6°F9.2°C 21.9°F-5.6°C 35% 3.0 mph SSE4.8 kmh SSE -- 30.15 in1021.0 mb 0.00 in0.0 mm 0.00 in0.0 mm 0.00 in0.0 mm
10:59 AM 48.5°F9.2°C 21.9°F-5.6°C 35% 2.0 mph SSW3.2 kmh SSW -- 30.15 in1021.0 mb 0.00 in0.0 mm 0.00 in0.0 mm 0.00 in0.0 mm
10:58 AM 48.6°F9.2°C 21.9°F-5.6°C 35% 2.0 mph ESE3.2 kmh ESE -- 30.15 in1021.0 mb 0.00 in0.0 mm 0.00 in0.0 mm 0.00 in0.0 mm
10:57 AM 48.4°F9.1°C 21.8°F-5.7°C 35% 4.0 mph ESE6.4 kmh ESE -- 30.15 in1021.0 mb 0.00 in0.0 mm 0.00 in0.0 mm 0.00 in0.0 mm
10:56 AM 47.7°F8.7°C 22.5°F-5.3°C 37% 2.0 mph SE3.2 kmh SE -- 30.15 in1021.0 mb 0.00 in0.0 mm 0.00 in0.0 mm 0.00 in0.0 mm
10:55 AM 47.5°F8.6°C 22.3°F-5.4°C 37% 4.0 mph SSE6.4 kmh SSE -- 30.15 in1021.0 mb 0.00 in0.0 mm 0.00 in0.0 mm 0.00 in0.0 mm
10:54 AM 47.6°F8.7°C 22.5°F-5.3°C 37% 5.0 mph SSE8.0 kmh SSE -- 30.15 in1021.0 mb 0.00 in0.0 mm 0.00 in0.0 mm 0.00 in0.0 mm
10:53 AM 47.7°F8.7°C 22.5°F-5.3°C 37% 4.0 mph SSE6.4 kmh SSE -- 30.15 in1021.0 mb 0.00 in0.0 mm 0.00 in0.0 mm 0.00 in0.0 mm
10:52 AM 48.0°F8.9°C 22.8°F-5.1°C 37% 4.0 mph SSE6.4 kmh SSE -- 30.15 in1021.0 mb 0.00 in0.0 mm 0.00 in0.0 mm 0.00 in0.0 mm
10:51 AM 47.6°F8.7°C 21.1°F-6.1°C 35% 4.0 mph ESE6.4 kmh ESE -- 30.15 in1021.0 mb 0.00 in0.0 mm 0.00 in0.0 mm 0.00 in0.0 mm
10:50 AM 47.6°F8.7°C 21.1°F-6.1°C 35% 2.0 mph ESE3.2 kmh ESE -- 30.15 in1021.0 mb 0.00 in0.0 mm 0.00 in0.0 mm 0.00 in0.0 mm
10:49 AM 47.6°F8.7°C 21.1°F-6.1°C 35% 3.0 mph ESE4.8 kmh ESE -- 30.15 in1021.0 mb 0.00 in0.0 mm 0.00 in0.0 mm 0.00 in0.0 mm
10:48 AM 47.3°F8.5°C 22.1°F-5.5°C 37% 4.0 mph ESE6.4 kmh ESE -- 30.16 in1021.3 mb 0.00 in0.0 mm 0.00 in0.0 mm 0.00 in0.0 mm
10:47 AM 47.1°F8.4°C 22.0°F-5.6°C 37% 5.0 mph SE8.0 kmh SE -- 30.15 in1021.0 mb 0.00 in0.0 mm 0.00 in0.0 mm 0.00 in0.0 mm
10:46 AM 47.3°F8.5°C 22.1°F-5.5°C 37% 6.0 mph SSE9.7 kmh SSE -- 30.15 in1021.0 mb 0.00 in0.0 mm 0.00 in0.0 mm 0.00 in0.0 mm
10:45 AM 47.3°F8.5°C 22.1°F-5.5°C 37% 4.0 mph ESE6.4 kmh ESE -- 30.15 in1021.0 mb 0.00 in0.0 mm 0.00 in0.0 mm 0.00 in0.0 mm
10:44 AM 47.5°F8.6°C 22.3°F-5.4°C 37% 4.0 mph SSE6.4 kmh SSE -- 30.15 in1021.0 mb 0.00 in0.0 mm 0.00 in0.0 mm 0.00 in0.0 mm
10:43 AM 47.6°F8.7°C 22.5°F-5.3°C 37% 3.0 mph SSE4.8 kmh SSE -- 30.15 in1021.0 mb 0.00 in0.0 mm 0.00 in0.0 mm 0.00 in0.0 mm
10:42 AM 47.7°F8.7°C 22.5°F-5.3°C 37% 4.0 mph SSE6.4 kmh SSE -- 30.15 in1021.0 mb 0.00 in0.0 mm 0.00 in0.0 mm 0.00 in0.0 mm
10:41 AM 47.5°F8.6°C 22.3°F-5.4°C 37% 4.0 mph SE6.4 kmh SE -- 30.15 in1021.0 mb 0.00 in0.0 mm 0.00 in0.0 mm 0.00 in0.0 mm
10:40 AM 47.5°F8.6°C 22.3°F-5.4°C 37% 3.0 mph SSW4.8 kmh SSW -- 30.16 in1021.3 mb 0.00 in0.0 mm 0.00 in0.0 mm 0.00 in0.0 mm
10:39 AM 47.3°F8.5°C 22.1°F-5.5°C 37% 2.0 mph NE3.2 kmh NE -- 30.16 in1021.3 mb 0.00 in0.0 mm 0.00 in0.0 mm 0.00 in0.0 mm
10:38 AM 47.1°F8.4°C 22.0°F-5.6°C 37% 3.0 mph ENE4.8 kmh ENE -- 30.16 in1021.3 mb 0.00 in0.0 mm 0.00 in0.0 mm 0.00 in0.0 mm
10:37 AM 46.9°F8.3°C 21.8°F-5.7°C 37% 2.0 mph ESE3.2 kmh ESE -- 30.16 in1021.3 mb 0.00 in0.0 mm 0.00 in0.0 mm 0.00 in0.0 mm
10:35 AM 47.1°F8.4°C 22.0°F-5.6°C 37% 2.0 mph ESE3.2 kmh ESE -- 30.16 in1021.3 mb 0.00 in0.0 mm 0.00 in0.0 mm 0.00 in0.0 mm
10:34 AM 46.9°F8.3°C 21.8°F-5.7°C 37% 3.0 mph ESE4.8 kmh ESE -- 30.16 in1021.3 mb 0.00 in0.0 mm 0.00 in0.0 mm 0.00 in0.0 mm
10:33 AM 46.5°F8.1°C 21.5°F-5.8°C 37% 4.0 mph ESE6.4 kmh ESE -- 30.16 in1021.3 mb 0.00 in0.0 mm 0.00 in0.0 mm 0.00 in0.0 mm
10:32 AM 46.4°F8.0°C 21.3°F-5.9°C 37% 1.0 mph SE1.6 kmh SE -- 30.16 in1021.3 mb 0.00 in0.0 mm 0.00 in0.0 mm 0.00 in0.0 mm
10:31 AM 46.4°F8.0°C 22.6°F-5.2°C 39% 3.0 mph ENE4.8 kmh ENE -- 30.16 in1021.3 mb 0.00 in0.0 mm 0.00 in0.0 mm 0.00 in0.0 mm
10:30 AM 46.4°F8.0°C 22.6°F-5.2°C 39% 1.0 mph ESE1.6 kmh ESE -- 30.16 in1021.3 mb 0.00 in0.0 mm 0.00 in0.0 mm 0.00 in0.0 mm
10:29 AM 45.9°F7.7°C 22.7°F-5.2°C 40% 2.0 mph ESE3.2 kmh ESE -- 30.16 in1021.3 mb 0.00 in0.0 mm 0.00 in0.0 mm 0.00 in0.0 mm
10:28 AM 45.7°F7.6°C 22.5°F-5.3°C 40% 3.0 mph ESE4.8 kmh ESE -- 30.16 in1021.3 mb 0.00 in0.0 mm 0.00 in0.0 mm 0.00 in0.0 mm
10:27 AM 45.0°F7.2°C 21.9°F-5.6°C 40% 1.0 mph SE1.6 kmh SE -- 30.16 in1021.3 mb 0.00 in0.0 mm 0.00 in0.0 mm 0.00 in0.0 mm
10:26 AM 45.2°F7.3°C 22.0°F-5.6°C 40% 1.0 mph SSW1.6 kmh SSW -- 30.16 in1021.3 mb 0.00 in0.0 mm 0.00 in0.0 mm 0.00 in0.0 mm
10:25 AM 45.2°F7.3°C 22.0°F-5.6°C 40% 2.0 mph ESE3.2 kmh ESE -- 30.16 in1021.3 mb 0.00 in0.0 mm 0.00 in0.0 mm 0.00 in0.0 mm
10:24 AM 45.5°F7.5°C 22.4°F-5.3°C 40% 3.0 mph ESE4.8 kmh ESE -- 30.16 in1021.3 mb 0.00 in0.0 mm 0.00 in0.0 mm 0.00 in0.0 mm
10:23 AM 45.7°F7.6°C 22.5°F-5.3°C 40% 3.0 mph ESE4.8 kmh ESE -- 30.16 in1021.3 mb 0.00 in0.0 mm 0.00 in0.0 mm 0.00 in0.0 mm
10:22 AM 45.5°F7.5°C 22.4°F-5.3°C 40% 4.0 mph ESE6.4 kmh ESE -- 30.16 in1021.3 mb 0.00 in0.0 mm 0.00 in0.0 mm 0.00 in0.0 mm
10:21 AM 44.6°F7.0°C 21.6°F-5.8°C 40% 4.0 mph SSE6.4 kmh SSE -- 30.16 in1021.3 mb 0.00 in0.0 mm 0.00 in0.0 mm 0.00 in0.0 mm
10:20 AM 44.4°F6.9°C 21.4°F-5.9°C 40% 3.0 mph S4.8 kmh S -- 30.16 in1021.3 mb 0.00 in0.0 mm 0.00 in0.0 mm 0.00 in0.0 mm
10:19 AM 44.6°F7.0°C 21.6°F-5.8°C 40% 4.0 mph SSE6.4 kmh SSE -- 30.16 in1021.3 mb 0.00 in0.0 mm 0.00 in0.0 mm 0.00 in0.0 mm
10:18 AM 44.6°F7.0°C 21.6°F-5.8°C 40% 3.0 mph ESE4.8 kmh ESE -- 30.16 in1021.3 mb 0.00 in0.0 mm 0.00 in0.0 mm 0.00 in0.0 mm
10:17 AM 45.0°F7.2°C 21.9°F-5.6°C 40% 3.0 mph SE4.8 kmh SE -- 30.16 in1021.3 mb 0.00 in0.0 mm 0.00 in0.0 mm 0.00 in0.0 mm
10:16 AM 45.0°F7.2°C 22.5°F-5.3°C 41% 4.0 mph SSE6.4 kmh SSE -- 30.16 in1021.3 mb 0.00 in0.0 mm 0.00 in0.0 mm 0.00 in0.0 mm
10:15 AM 44.8°F7.1°C 22.3°F-5.4°C 41% 3.0 mph SE4.8 kmh SE -- 30.17 in1021.7 mb 0.00 in0.0 mm 0.00 in0.0 mm 0.00 in0.0 mm
10:14 AM 44.6°F7.0°C 22.1°F-5.5°C 41% 2.0 mph NE3.2 kmh NE -- 30.17 in1021.7 mb 0.00 in0.0 mm 0.00 in0.0 mm 0.00 in0.0 mm
10:13 AM 44.4°F6.9°C 22.0°F-5.6°C 41% 2.0 mph ESE3.2 kmh ESE -- 30.17 in1021.7 mb 0.00 in0.0 mm 0.00 in0.0 mm 0.00 in0.0 mm
10:12 AM 44.6°F7.0°C 22.1°F-5.5°C 41% 3.0 mph SSE4.8 kmh SSE -- 30.17 in1021.7 mb 0.00 in0.0 mm 0.00 in0.0 mm 0.00 in0.0 mm
10:11 AM 44.8°F7.1°C 22.3°F-5.4°C 41% 4.0 mph ESE6.4 kmh ESE -- 30.17 in1021.7 mb 0.00 in0.0 mm 0.00 in0.0 mm 0.00 in0.0 mm
10:10 AM 44.2°F6.8°C 23.0°F-5.0°C 43% 4.0 mph ESE6.4 kmh ESE -- 30.17 in1021.7 mb 0.00 in0.0 mm 0.00 in0.0 mm 0.00 in0.0 mm
10:09 AM 43.9°F6.6°C 22.6°F-5.2°C 43% 3.0 mph E4.8 kmh E -- 30.17 in1021.7 mb 0.00 in0.0 mm 0.00 in0.0 mm 0.00 in0.0 mm
10:08 AM 43.6°F6.4°C 22.3°F-5.4°C 43% 3.0 mph SE4.8 kmh SE -- 30.17 in1021.7 mb 0.00 in0.0 mm 0.00 in0.0 mm 0.00 in0.0 mm
10:07 AM 43.4°F6.3°C 22.1°F-5.5°C 43% 3.0 mph ESE4.8 kmh ESE -- 30.16 in1021.3 mb 0.00 in0.0 mm 0.00 in0.0 mm 0.00 in0.0 mm
10:06 AM 43.4°F6.3°C 22.1°F-5.5°C 43% 3.0 mph E4.8 kmh E -- 30.17 in1021.7 mb 0.00 in0.0 mm 0.00 in0.0 mm 0.00 in0.0 mm
10:05 AM 43.2°F6.2°C 22.0°F-5.6°C 43% Calm Calm -- 30.17 in1021.7 mb 0.00 in0.0 mm 0.00 in0.0 mm 0.00 in0.0 mm
10:04 AM 43.2°F6.2°C 22.0°F-5.6°C 43% 2.0 mph ENE3.2 kmh ENE -- 30.17 in1021.7 mb 0.00 in0.0 mm 0.00 in0.0 mm 0.00 in0.0 mm
10:03 AM 43.0°F6.1°C 21.8°F-5.7°C 43% 3.0 mph E4.8 kmh E -- 30.17 in1021.7 mb 0.00 in0.0 mm 0.00 in0.0 mm 0.00 in0.0 mm
10:02 AM 43.0°F6.1°C 21.8°F-5.7°C 43% 2.0 mph SE3.2 kmh SE -- 30.17 in1021.7 mb 0.00 in0.0 mm 0.00 in0.0 mm 0.00 in0.0 mm
10:01 AM 43.2°F6.2°C 22.5°F-5.3°C 44% 3.0 mph ESE4.8 kmh ESE -- 30.16 in1021.3 mb 0.00 in0.0 mm 0.00 in0.0 mm 0.00 in0.0 mm
10:00 AM 43.0°F6.1°C 22.4°F-5.3°C 44% 3.0 mph SSE4.8 kmh SSE -- 30.16 in1021.3 mb 0.00 in0.0 mm 0.00 in0.0 mm 0.00 in0.0 mm
09:59 AM 42.7°F5.9°C 22.0°F-5.6°C 44% 3.0 mph E4.8 kmh E -- 30.16 in1021.3 mb 0.00 in0.0 mm 0.00 in0.0 mm 0.00 in0.0 mm
09:58 AM 42.4°F5.8°C 21.9°F-5.6°C 44% 3.0 mph ENE4.8 kmh ENE -- 30.17 in1021.7 mb 0.00 in0.0 mm 0.00 in0.0 mm 0.00 in0.0 mm
09:57 AM 42.4°F5.8°C 21.9°F-5.6°C 44% Calm Calm -- 30.17 in1021.7 mb 0.00 in0.0 mm 0.00 in0.0 mm 0.00 in0.0 mm
09:56 AM 42.3°F5.7°C 21.2°F-6.0°C 43% Calm Calm -- 30.17 in1021.7 mb 0.00 in0.0 mm 0.00 in0.0 mm 0.00 in0.0 mm
09:55 AM 42.1°F5.6°C 21.0°F-6.1°C 43% 1.0 mph NNW1.6 kmh NNW -- 30.17 in1021.7 mb 0.00 in0.0 mm 0.00 in0.0 mm 0.00 in0.0 mm
09:54 AM 42.3°F5.7°C 21.2°F-6.0°C 43% 2.0 mph NE3.2 kmh NE -- 30.17 in1021.7 mb 0.00 in0.0 mm 0.00 in0.0 mm 0.00 in0.0 mm
09:53 AM 41.9°F5.5°C 21.4°F-5.9°C 44% 3.0 mph ESE4.8 kmh ESE -- 30.17 in1021.7 mb 0.00 in0.0 mm 0.00 in0.0 mm 0.00 in0.0 mm
09:52 AM 41.1°F5.1°C 21.2°F-6.0°C 45% 2.0 mph E3.2 kmh E -- 30.17 in1021.7 mb 0.00 in0.0 mm 0.00 in0.0 mm 0.00 in0.0 mm
09:51 AM 40.7°F4.8°C 20.8°F-6.2°C 45% Calm Calm -- 30.17 in1021.7 mb 0.00 in0.0 mm 0.00 in0.0 mm 0.00 in0.0 mm
09:50 AM 40.7°F4.8°C 20.8°F-6.2°C 45% 3.0 mph ESE4.8 kmh ESE -- 30.17 in1021.7 mb 0.00 in0.0 mm 0.00 in0.0 mm 0.00 in0.0 mm
09:49 AM 40.7°F4.8°C 21.3°F-5.9°C 46% 4.0 mph ESE6.4 kmh ESE -- 30.17 in1021.7 mb 0.00 in0.0 mm 0.00 in0.0 mm 0.00 in0.0 mm
09:48 AM 40.7°F4.8°C 21.3°F-5.9°C 46% 2.0 mph SSE3.2 kmh SSE -- 30.17 in1021.7 mb 0.00 in0.0 mm 0.00 in0.0 mm 0.00 in0.0 mm
09:47 AM 40.7°F4.8°C 21.3°F-5.9°C 46% 4.0 mph SE6.4 kmh SE -- 30.17 in1021.7 mb 0.00 in0.0 mm 0.00 in0.0 mm 0.00 in0.0 mm
09:46 AM 40.9°F4.9°C 20.9°F-6.2°C 45% 3.0 mph SSE4.8 kmh SSE -- 30.17 in1021.7 mb 0.00 in0.0 mm 0.00 in0.0 mm 0.00 in0.0 mm
09:45 AM 41.5°F5.3°C 22.1°F-5.5°C 46% 4.0 mph ESE6.4 kmh ESE -- 30.17 in1021.7 mb 0.00 in0.0 mm 0.00 in0.0 mm 0.00 in0.0 mm
09:44 AM 41.5°F5.3°C 22.1°F-5.5°C 46% 3.0 mph ENE4.8 kmh ENE -- 30.17 in1021.7 mb 0.00 in0.0 mm 0.00 in0.0 mm 0.00 in0.0 mm
09:43 AM 41.4°F5.2°C 21.9°F-5.6°C 46% 4.0 mph E6.4 kmh E -- 30.17 in1021.7 mb 0.00 in0.0 mm 0.00 in0.0 mm 0.00 in0.0 mm
09:42 AM 40.9°F4.9°C 21.4°F-5.9°C 46% 4.0 mph NE6.4 kmh NE -- 30.17 in1021.7 mb 0.00 in0.0 mm 0.00 in0.0 mm 0.00 in0.0 mm
09:41 AM 40.9°F4.9°C 21.4°F-5.9°C 46% 3.0 mph SE4.8 kmh SE -- 30.17 in1021.7 mb 0.00 in0.0 mm 0.00 in0.0 mm 0.00 in0.0 mm
09:40 AM 40.9°F4.9°C 22.5°F-5.3°C 48% 2.0 mph E3.2 kmh E -- 30.17 in1021.7 mb 0.00 in0.0 mm 0.00 in0.0 mm 0.00 in0.0 mm
09:39 AM 40.9°F4.9°C 22.5°F-5.3°C 48% 1.0 mph ESE1.6 kmh ESE -- 30.17 in1021.7 mb 0.00 in0.0 mm 0.00 in0.0 mm 0.00 in0.0 mm
09:38 AM 41.4°F5.2°C 21.9°F-5.6°C 46% 3.0 mph E4.8 kmh E -- 30.17 in1021.7 mb 0.00 in0.0 mm 0.00 in0.0 mm 0.00 in0.0 mm
09:37 AM 40.9°F4.9°C 21.4°F-5.9°C 46% 3.0 mph ESE4.8 kmh ESE -- 30.17 in1021.7 mb 0.00 in0.0 mm 0.00 in0.0 mm 0.00 in0.0 mm
09:36 AM 40.7°F4.8°C 20.8°F-6.2°C 45% 1.0 mph NE1.6 kmh NE -- 30.17 in1021.7 mb 0.00 in0.0 mm 0.00 in0.0 mm 0.00 in0.0 mm
09:35 AM 40.7°F4.8°C 21.3°F-5.9°C 46% 3.0 mph ENE4.8 kmh ENE -- 30.17 in1021.7 mb 0.00 in0.0 mm 0.00 in0.0 mm 0.00 in0.0 mm
09:34 AM 40.5°F4.7°C 21.1°F-6.1°C 46% 3.0 mph E4.8 kmh E -- 30.17 in1021.7 mb 0.00 in0.0 mm 0.00 in0.0 mm 0.00 in0.0 mm
09:33 AM 40.2°F4.6°C 22.0°F-5.6°C 48% 2.0 mph E3.2 kmh E -- 30.17 in1021.7 mb 0.00 in0.0 mm 0.00 in0.0 mm 0.00 in0.0 mm
09:32 AM 39.5°F4.2°C 22.3°F-5.4°C 50% 4.0 mph ESE6.4 kmh ESE -- 30.17 in1021.7 mb 0.00 in0.0 mm 0.00 in0.0 mm 0.00 in0.0 mm
09:31 AM 39.5°F4.2°C 21.8°F-5.7°C 49% 2.0 mph ESE3.2 kmh ESE -- 30.17 in1021.7 mb 0.00 in0.0 mm 0.00 in0.0 mm 0.00 in0.0 mm
09:30 AM 39.5°F4.2°C 21.8°F-5.7°C 49% 2.0 mph SE3.2 kmh SE -- 30.17 in1021.7 mb 0.00 in0.0 mm 0.00 in0.0 mm 0.00 in0.0 mm
09:29 AM 39.4°F4.1°C 21.1°F-6.1°C 48% 3.0 mph SSE4.8 kmh SSE -- 30.17 in1021.7 mb 0.00 in0.0 mm 0.00 in0.0 mm 0.00 in0.0 mm
09:28 AM 39.4°F4.1°C 20.1°F-6.6°C 46% 2.0 mph SSE3.2 kmh SSE -- 30.17 in1021.7 mb 0.00 in0.0 mm 0.00 in0.0 mm 0.00 in0.0 mm
09:27 AM 39.5°F4.2°C 20.3°F-6.5°C 46% 2.0 mph ESE3.2 kmh ESE -- 30.17 in1021.7 mb 0.00 in0.0 mm 0.00 in0.0 mm 0.00 in0.0 mm
09:26 AM 39.7°F4.3°C 20.4°F-6.4°C 46% 3.0 mph ESE4.8 kmh ESE -- 30.17 in1021.7 mb 0.00 in0.0 mm 0.00 in0.0 mm 0.00 in0.0 mm
09:25 AM 39.5°F4.2°C 21.3°F-5.9°C 48% 3.0 mph E4.8 kmh E -- 30.17 in1021.7 mb 0.00 in0.0 mm 0.00 in0.0 mm 0.00 in0.0 mm
09:24 AM 39.4°F4.1°C 20.1°F-6.6°C 46% 3.0 mph NE4.8 kmh NE -- 30.18 in1022.0 mb 0.00 in0.0 mm 0.00 in0.0 mm 0.00 in0.0 mm
09:23 AM 39.2°F4.0°C 21.0°F-6.1°C 48% 3.0 mph ESE4.8 kmh ESE -- 30.17 in1021.7 mb 0.00 in0.0 mm 0.00 in0.0 mm 0.00 in0.0 mm
09:22 AM 39.4°F4.1°C 21.1°F-6.1°C 48% 2.0 mph ENE3.2 kmh ENE -- 30.17 in1021.7 mb 0.00 in0.0 mm 0.00 in0.0 mm 0.00 in0.0 mm
09:21 AM 39.2°F4.0°C 21.4°F-5.9°C 49% 3.0 mph ESE4.8 kmh ESE -- 30.17 in1021.7 mb 0.00 in0.0 mm 0.00 in0.0 mm 0.00 in0.0 mm
09:20 AM 38.7°F3.7°C 21.4°F-5.9°C 50% Calm Calm -- 30.17 in1021.7 mb 0.00 in0.0 mm 0.00 in0.0 mm 0.00 in0.0 mm
09:19 AM 38.7°F3.7°C 21.4°F-5.9°C 50% 2.0 mph E3.2 kmh E -- 30.17 in1021.7 mb 0.00 in0.0 mm 0.00 in0.0 mm 0.00 in0.0 mm
09:18 AM 38.7°F3.7°C 21.4°F-5.9°C 50% 3.0 mph E4.8 kmh E -- 30.18 in1022.0 mb 0.00 in0.0 mm 0.00 in0.0 mm 0.00 in0.0 mm
09:17 AM 38.0°F3.3°C 20.8°F-6.2°C 50% 5.0 mph ESE8.0 kmh ESE -- 30.17 in1021.7 mb 0.00 in0.0 mm 0.00 in0.0 mm 0.00 in0.0 mm
09:16 AM 38.0°F3.3°C 20.3°F-6.5°C 49% 3.0 mph SE4.8 kmh SE -- 30.18 in1022.0 mb 0.00 in0.0 mm 0.00 in0.0 mm 0.00 in0.0 mm
09:15 AM 38.4°F3.6°C 19.3°F-7.1°C 46% 4.0 mph ESE6.4 kmh ESE -- 30.18 in1022.0 mb 0.00 in0.0 mm 0.00 in0.0 mm 0.00 in0.0 mm
09:14 AM 39.0°F3.9°C 19.3°F-7.1°C 45% 3.0 mph ESE4.8 kmh ESE -- 30.17 in1021.7 mb 0.00 in0.0 mm 0.00 in0.0 mm 0.00 in0.0 mm
09:13 AM 39.0°F3.9°C 19.3°F-7.1°C 45% 4.0 mph E6.4 kmh E -- 30.17 in1021.7 mb 0.00 in0.0 mm 0.00 in0.0 mm 0.00 in0.0 mm
09:12 AM 39.0°F3.9°C 19.3°F-7.1°C 45% 5.0 mph E8.0 kmh E -- 30.18 in1022.0 mb 0.00 in0.0 mm 0.00 in0.0 mm 0.00 in0.0 mm
09:11 AM 38.7°F3.7°C 19.5°F-6.9°C 46% 5.0 mph E8.0 kmh E -- 30.17 in1021.7 mb 0.00 in0.0 mm 0.00 in0.0 mm 0.00 in0.0 mm
09:10 AM 38.7°F3.7°C 19.5°F-6.9°C 46% 4.0 mph ENE6.4 kmh ENE -- 30.17 in1021.7 mb 0.00 in0.0 mm 0.00 in0.0 mm 0.00 in0.0 mm
09:09 AM 38.2°F3.4°C 20.0°F-6.7°C 48% 3.0 mph ENE4.8 kmh ENE -- 30.17 in1021.7 mb 0.00 in0.0 mm 0.00 in0.0 mm 0.00 in0.0 mm
09:08 AM 38.2°F3.4°C 20.0°F-6.7°C 48% 3.0 mph E4.8 kmh E -- 30.17 in1021.7 mb 0.00 in0.0 mm 0.00 in0.0 mm 0.00 in0.0 mm
09:07 AM 38.0°F3.3°C 19.8°F-6.8°C 48% 2.0 mph E3.2 kmh E -- 30.17 in1021.7 mb 0.00 in0.0 mm 0.00 in0.0 mm 0.00 in0.0 mm
09:06 AM 38.0°F3.3°C 18.8°F-7.3°C 46% 2.0 mph ENE3.2 kmh ENE -- 30.18 in1022.0 mb 0.00 in0.0 mm 0.00 in0.0 mm 0.00 in0.0 mm
09:05 AM 38.0°F3.3°C 18.3°F-7.6°C 45% 2.0 mph ENE3.2 kmh ENE -- 30.18 in1022.0 mb 0.00 in0.0 mm 0.00 in0.0 mm 0.00 in0.0 mm
09:04 AM 38.0°F3.3°C 18.3°F-7.6°C 45% 3.0 mph ENE4.8 kmh ENE -- 30.18 in1022.0 mb 0.00 in0.0 mm 0.00 in0.0 mm 0.00 in0.0 mm
09:03 AM 37.8°F3.2°C 18.6°F-7.4°C 46% 4.0 mph NE6.4 kmh NE -- 30.18 in1022.0 mb 0.00 in0.0 mm 0.00 in0.0 mm 0.00 in0.0 mm
09:02 AM 37.7°F3.2°C 18.6°F-7.4°C 46% 3.0 mph ENE4.8 kmh ENE -- 30.18 in1022.0 mb 0.00 in0.0 mm 0.00 in0.0 mm 0.00 in0.0 mm
09:01 AM 37.5°F3.1°C 19.5°F-6.9°C 48% 5.0 mph ESE8.0 kmh ESE -- 30.18 in1022.0 mb 0.00 in0.0 mm 0.00 in0.0 mm 0.00 in0.0 mm
09:00 AM 37.4°F3.0°C 20.3°F-6.5°C 50% 2.0 mph NE3.2 kmh NE -- 30.17 in1021.7 mb 0.00 in0.0 mm 0.00 in0.0 mm 0.00 in0.0 mm
08:59 AM 37.0°F2.8°C 19.9°F-6.7°C 50% 2.0 mph NE3.2 kmh NE -- 30.17 in1021.7 mb 0.00 in0.0 mm 0.00 in0.0 mm 0.00 in0.0 mm
08:58 AM 37.2°F2.9°C 19.6°F-6.9°C 49% 2.0 mph E3.2 kmh E -- 30.18 in1022.0 mb 0.00 in0.0 mm 0.00 in0.0 mm 0.00 in0.0 mm
08:57 AM 37.2°F2.9°C 19.1°F-7.2°C 48% 2.0 mph NE3.2 kmh NE -- 30.18 in1022.0 mb 0.00 in0.0 mm 0.00 in0.0 mm 0.00 in0.0 mm
08:56 AM 37.0°F2.8°C 19.9°F-6.7°C 50% 3.0 mph NNE4.8 kmh NNE -- 30.17 in1021.7 mb 0.00 in0.0 mm 0.00 in0.0 mm 0.00 in0.0 mm
08:55 AM 36.9°F2.7°C 19.8°F-6.8°C 50% 3.0 mph ENE4.8 kmh ENE -- 30.18 in1022.0 mb 0.00 in0.0 mm 0.00 in0.0 mm 0.00 in0.0 mm
08:54 AM 36.5°F2.5°C 19.4°F-7.0°C 50% 3.0 mph NNE4.8 kmh NNE -- 30.18 in1022.0 mb 0.00 in0.0 mm 0.00 in0.0 mm 0.00 in0.0 mm
08:53 AM 36.2°F2.3°C 19.1°F-7.2°C 50% Calm Calm -- 30.18 in1022.0 mb 0.00 in0.0 mm 0.00 in0.0 mm 0.00 in0.0 mm
08:52 AM 36.7°F2.6°C 19.1°F-7.2°C 49% 2.0 mph ESE3.2 kmh ESE -- 30.18 in1022.0 mb 0.00 in0.0 mm 0.00 in0.0 mm 0.00 in0.0 mm
08:51 AM 36.2°F2.3°C 19.1°F-7.2°C 50% 3.0 mph ENE4.8 kmh ENE -- 30.18 in1022.0 mb 0.00 in0.0 mm 0.00 in0.0 mm 0.00 in0.0 mm
08:50 AM 36.2°F2.3°C 19.6°F-6.9°C 51% Calm Calm -- 30.18 in1022.0 mb 0.00 in0.0 mm 0.00 in0.0 mm 0.00 in0.0 mm
08:49 AM 36.2°F2.3°C 19.1°F-7.2°C 50% 2.0 mph ENE3.2 kmh ENE -- 30.18 in1022.0 mb 0.00 in0.0 mm 0.00 in0.0 mm 0.00 in0.0 mm
08:48 AM 36.2°F2.3°C 19.6°F-6.9°C 51% 3.0 mph E4.8 kmh E -- 30.18 in1022.0 mb 0.00 in0.0 mm 0.00 in0.0 mm 0.00 in0.0 mm
08:47 AM 36.1°F2.3°C 20.5°F-6.4°C 53% 3.0 mph E4.8 kmh E -- 30.18 in1022.0 mb 0.00 in0.0 mm 0.00 in0.0 mm 0.00 in0.0 mm
08:46 AM 35.9°F2.2°C 19.4°F-7.0°C 51% 2.0 mph ENE3.2 kmh ENE -- 30.18 in1022.0 mb 0.00 in0.0 mm 0.00 in0.0 mm 0.00 in0.0 mm
08:45 AM 36.1°F2.3°C 19.6°F-6.9°C 51% 2.0 mph ENE3.2 kmh ENE -- 30.18 in1022.0 mb 0.00 in0.0 mm 0.00 in0.0 mm 0.00 in0.0 mm
08:44 AM 35.9°F2.2°C 20.3°F-6.5°C 53% 2.0 mph NE3.2 kmh NE -- 30.18 in1022.0 mb 0.00 in0.0 mm 0.00 in0.0 mm 0.00 in0.0 mm
08:43 AM 35.5°F1.9°C 20.7°F-6.3°C 55% 2.0 mph ENE3.2 kmh ENE -- 30.18 in1022.0 mb 0.00 in0.0 mm 0.00 in0.0 mm 0.00 in0.0 mm
08:42 AM 35.0°F1.7°C 20.3°F-6.5°C 55% 2.0 mph ENE3.2 kmh ENE -- 30.18 in1022.0 mb 0.00 in0.0 mm 0.00 in0.0 mm 0.00 in0.0 mm
08:41 AM 35.0°F1.7°C 20.3°F-6.5°C 55% Calm Calm -- 30.18 in1022.0 mb 0.00 in0.0 mm 0.00 in0.0 mm 0.00 in0.0 mm
08:40 AM 35.4°F1.9°C 20.2°F-6.6°C 54% 2.0 mph E3.2 kmh E -- 30.18 in1022.0 mb 0.00 in0.0 mm 0.00 in0.0 mm 0.00 in0.0 mm
08:39 AM 35.4°F1.9°C 20.2°F-6.6°C 54% 1.0 mph NE1.6 kmh NE -- 30.18 in1022.0 mb 0.00 in0.0 mm 0.00 in0.0 mm 0.00 in0.0 mm
08:38 AM 35.4°F1.9°C 20.7°F-6.3°C 55% 1.0 mph NW1.6 kmh NW -- 30.18 in1022.0 mb 0.00 in0.0 mm 0.00 in0.0 mm 0.00 in0.0 mm
08:37 AM 34.9°F1.6°C 20.2°F-6.6°C 55% 1.0 mph NNE1.6 kmh NNE -- 30.18 in1022.0 mb 0.00 in0.0 mm 0.00 in0.0 mm 0.00 in0.0 mm
08:36 AM 34.7°F1.5°C 20.4°F-6.4°C 56% 2.0 mph ESE3.2 kmh ESE -- 30.18 in1022.0 mb 0.00 in0.0 mm 0.00 in0.0 mm 0.00 in0.0 mm
08:35 AM 34.9°F1.6°C 20.2°F-6.6°C 55% 1.0 mph NNW1.6 kmh NNW -- 30.18 in1022.0 mb 0.00 in0.0 mm 0.00 in0.0 mm 0.00 in0.0 mm
08:34 AM 34.9°F1.6°C 20.2°F-6.6°C 55% 2.0 mph NE3.2 kmh NE -- 30.18 in1022.0 mb 0.00 in0.0 mm 0.00 in0.0 mm 0.00 in0.0 mm
08:33 AM 34.9°F1.6°C 20.2°F-6.6°C 55% 1.0 mph NE1.6 kmh NE -- 30.18 in1022.0 mb 0.00 in0.0 mm 0.00 in0.0 mm 0.00 in0.0 mm
08:32 AM 34.7°F1.5°C 20.0°F-6.7°C 55% 2.0 mph NE3.2 kmh NE -- 30.18 in1022.0 mb 0.00 in0.0 mm 0.00 in0.0 mm 0.00 in0.0 mm
08:31 AM 34.5°F1.4°C 19.8°F-6.8°C 55% 1.0 mph 1.6 kmh -- 30.18 in1022.0 mb 0.00 in0.0 mm 0.00 in0.0 mm 0.00 in0.0 mm
08:30 AM 34.2°F1.2°C 19.5°F-6.9°C 55% Calm Calm -- 30.18 in1022.0 mb 0.00 in0.0 mm 0.00 in0.0 mm 0.00 in0.0 mm
08:29 AM 34.2°F1.2°C 19.9°F-6.7°C 56% Calm Calm -- 30.18 in1022.0 mb 0.00 in0.0 mm 0.00 in0.0 mm 0.00 in0.0 mm
08:28 AM 33.8°F1.0°C 20.8°F-6.2°C 59% Calm Calm -- 30.18 in1022.0 mb 0.00 in0.0 mm 0.00 in0.0 mm 0.00 in0.0 mm
08:27 AM 33.5°F0.8°C 20.5°F-6.4°C 59% 1.0 mph ENE1.6 kmh ENE -- 30.18 in1022.0 mb 0.00 in0.0 mm 0.00 in0.0 mm 0.00 in0.0 mm
08:26 AM 33.5°F0.8°C 20.5°F-6.4°C 59% 2.0 mph ENE3.2 kmh ENE -- 30.18 in1022.0 mb 0.00 in0.0 mm 0.00 in0.0 mm 0.00 in0.0 mm
08:25 AM 33.5°F0.8°C 19.3°F-7.1°C 56% 4.0 mph NE6.4 kmh NE -- 30.19 in1022.4 mb 0.00 in0.0 mm 0.00 in0.0 mm 0.00 in0.0 mm
08:24 AM 33.5°F0.8°C 18.8°F-7.3°C 55% 2.0 mph ENE3.2 kmh ENE -- 30.18 in1022.0 mb 0.00 in0.0 mm 0.00 in0.0 mm 0.00 in0.0 mm
08:23 AM 33.8°F1.0°C 19.2°F-7.1°C 55% 3.0 mph ENE4.8 kmh ENE -- 30.18 in1022.0 mb 0.00 in0.0 mm 0.00 in0.0 mm 0.00 in0.0 mm
08:22 AM 33.5°F0.8°C 20.1°F-6.6°C 58% 2.0 mph E3.2 kmh E -- 30.18 in1022.0 mb 0.00 in0.0 mm 0.00 in0.0 mm 0.00 in0.0 mm
08:21 AM 33.5°F0.8°C 20.5°F-6.4°C 59% 2.0 mph E3.2 kmh E -- 30.19 in1022.4 mb 0.00 in0.0 mm 0.00 in0.0 mm 0.00 in0.0 mm
08:20 AM 33.4°F0.8°C 20.5°F-6.4°C 59% Calm Calm -- 30.18 in1022.0 mb 0.00 in0.0 mm 0.00 in0.0 mm 0.00 in0.0 mm
08:19 AM 33.0°F0.6°C 20.2°F-6.6°C 59% Calm Calm -- 30.19 in1022.4 mb 0.00 in0.0 mm 0.00 in0.0 mm 0.00 in0.0 mm
08:18 AM 33.0°F0.6°C 20.5°F-6.4°C 60% 1.0 mph NNE1.6 kmh NNE -- 30.18 in1022.0 mb 0.00 in0.0 mm 0.00 in0.0 mm 0.00 in0.0 mm
08:17 AM 32.9°F0.5°C 20.8°F-6.2°C 61% 1.0 mph NNE1.6 kmh NNE -- 30.18 in1022.0 mb 0.00 in0.0 mm 0.00 in0.0 mm 0.00 in0.0 mm
08:16 AM 32.6°F0.3°C 21.2°F-6.0°C 63% 1.0 mph 1.6 kmh -- 30.18 in1022.0 mb 0.00 in0.0 mm 0.00 in0.0 mm 0.00 in0.0 mm
08:15 AM 32.4°F0.2°C 21.0°F-6.1°C 63% 2.0 mph 3.2 kmh -- 30.18 in1022.0 mb 0.00 in0.0 mm 0.00 in0.0 mm 0.00 in0.0 mm
08:13 AM 32.2°F0.1°C 21.6°F-5.8°C 65% 2.0 mph 3.2 kmh -- 30.18 in1022.0 mb 0.00 in0.0 mm 0.00 in0.0 mm 0.00 in0.0 mm
08:12 AM 32.5°F0.3°C 21.2°F-6.0°C 63% 2.0 mph NE3.2 kmh NE -- 30.18 in1022.0 mb 0.00 in0.0 mm 0.00 in0.0 mm 0.00 in0.0 mm
08:11 AM 32.5°F0.3°C 20.4°F-6.4°C 61% 2.0 mph 3.2 kmh -- 30.18 in1022.0 mb 0.00 in0.0 mm 0.00 in0.0 mm 0.00 in0.0 mm
08:10 AM 32.5°F0.3°C 20.4°F-6.4°C 61% 2.0 mph NNE3.2 kmh NNE -- 30.18 in1022.0 mb 0.00 in0.0 mm 0.00 in0.0 mm 0.00 in0.0 mm
08:09 AM 31.9°F-0.1°C 20.5°F-6.4°C 63% 2.0 mph NNE3.2 kmh NNE -- 30.18 in1022.0 mb 0.00 in0.0 mm 0.00 in0.0 mm 0.00 in0.0 mm
08:08 AM 31.5°F-0.3°C 20.2°F-6.6°C 63% 2.0 mph NNE3.2 kmh NNE -- 30.18 in1022.0 mb 0.00 in0.0 mm 0.00 in0.0 mm 0.00 in0.0 mm
08:07 AM 31.1°F-0.5°C 19.8°F-6.8°C 63% 2.0 mph NW3.2 kmh NW -- 30.18 in1022.0 mb 0.00 in0.0 mm 0.00 in0.0 mm 0.00 in0.0 mm
08:06 AM 31.1°F-0.5°C 19.8°F-6.8°C 63% 2.0 mph 3.2 kmh -- 30.19 in1022.4 mb 0.00 in0.0 mm 0.00 in0.0 mm 0.00 in0.0 mm
08:05 AM 30.8°F-0.7°C 20.2°F-6.6°C 65% 2.0 mph 3.2 kmh -- 30.18 in1022.0 mb 0.00 in0.0 mm 0.00 in0.0 mm 0.00 in0.0 mm
08:04 AM 30.5°F-0.8°C 19.3°F-7.1°C 63% 2.0 mph NW3.2 kmh NW -- 30.18 in1022.0 mb 0.00 in0.0 mm 0.00 in0.0 mm 0.00 in0.0 mm
08:03 AM 30.3°F-0.9°C 19.9°F-6.7°C 65% 2.0 mph NNW3.2 kmh NNW -- 30.18 in1022.0 mb 0.00 in0.0 mm 0.00 in0.0 mm 0.00 in0.0 mm
08:02 AM 30.1°F-1.1°C 19.5°F-6.9°C 65% 2.0 mph NNW3.2 kmh NNW -- 30.18 in1022.0 mb 0.00 in0.0 mm 0.00 in0.0 mm 0.00 in0.0 mm
08:01 AM 30.0°F-1.1°C 19.5°F-6.9°C 65% 2.0 mph NW3.2 kmh NW -- 30.18 in1022.0 mb 0.00 in0.0 mm 0.00 in0.0 mm 0.00 in0.0 mm
08:00 AM 30.0°F-1.1°C 19.9°F-6.7°C 66% 2.0 mph NW3.2 kmh NW -- 30.18 in1022.0 mb 0.00 in0.0 mm 0.00 in0.0 mm 0.00 in0.0 mm
07:59 AM 30.0°F-1.1°C 19.9°F-6.7°C 66% 1.0 mph 1.6 kmh -- 30.18 in1022.0 mb 0.00 in0.0 mm 0.00 in0.0 mm 0.00 in0.0 mm
07:58 AM 29.8°F-1.2°C 19.7°F-6.8°C 66% 1.0 mph NNW1.6 kmh NNW -- 30.18 in1022.0 mb 0.00 in0.0 mm 0.00 in0.0 mm 0.00 in0.0 mm
07:57 AM 29.8°F-1.2°C 20.4°F-6.4°C 68% 2.0 mph NW3.2 kmh NW -- 30.18 in1022.0 mb 0.00 in0.0 mm 0.00 in0.0 mm 0.00 in0.0 mm
07:56 AM 29.8°F-1.2°C 20.4°F-6.4°C 68% 1.0 mph NNW1.6 kmh NNW -- 30.18 in1022.0 mb 0.00 in0.0 mm 0.00 in0.0 mm 0.00 in0.0 mm
07:55 AM 30.1°F-1.1°C 19.9°F-6.7°C 66% 2.0 mph NNW3.2 kmh NNW -- 30.18 in1022.0 mb 0.00 in0.0 mm 0.00 in0.0 mm 0.00 in0.0 mm
07:54 AM 30.1°F-1.1°C 20.6°F-6.3°C 68% 1.0 mph WNW1.6 kmh WNW -- 30.18 in1022.0 mb 0.00 in0.0 mm 0.00 in0.0 mm 0.00 in0.0 mm
07:53 AM 30.0°F-1.1°C 21.0°F-6.1°C 69% 1.0 mph NNE1.6 kmh NNE -- 30.18 in1022.0 mb 0.00 in0.0 mm 0.00 in0.0 mm 0.00 in0.0 mm
07:52 AM 29.6°F-1.3°C 20.6°F-6.3°C 69% 1.0 mph 1.6 kmh -- 30.18 in1022.0 mb 0.00 in0.0 mm 0.00 in0.0 mm 0.00 in0.0 mm
07:51 AM 29.6°F-1.3°C 20.6°F-6.3°C 69% 2.0 mph NNW3.2 kmh NNW -- 30.18 in1022.0 mb 0.00 in0.0 mm 0.00 in0.0 mm 0.00 in0.0 mm
07:50 AM 29.1°F-1.6°C 20.8°F-6.2°C 71% Calm Calm -- 30.18 in1022.0 mb 0.00 in0.0 mm 0.00 in0.0 mm 0.00 in0.0 mm
07:49 AM 28.7°F-1.8°C 21.1°F-6.1°C 73% Calm Calm -- 30.18 in1022.0 mb 0.00 in0.0 mm 0.00 in0.0 mm 0.00 in0.0 mm
07:48 AM 28.7°F-1.8°C 20.4°F-6.4°C 71% 1.0 mph NW1.6 kmh NW -- 30.18 in1022.0 mb 0.00 in0.0 mm 0.00 in0.0 mm 0.00 in0.0 mm
07:47 AM 28.7°F-1.8°C 20.4°F-6.4°C 71% Calm Calm -- 30.18 in1022.0 mb 0.00 in0.0 mm 0.00 in0.0 mm 0.00 in0.0 mm
07:46 AM 27.9°F-2.3°C 20.9°F-6.2°C 75% Calm Calm -- 30.19 in1022.4 mb 0.00 in0.0 mm 0.00 in0.0 mm 0.00 in0.0 mm
07:45 AM 27.6°F-2.4°C 20.7°F-6.3°C 75% Calm Calm -- 30.18 in1022.0 mb 0.00 in0.0 mm 0.00 in0.0 mm 0.00 in0.0 mm
07:44 AM 27.1°F-2.7°C 20.5°F-6.4°C 76% Calm Calm -- 30.19 in1022.4 mb 0.00 in0.0 mm 0.00 in0.0 mm 0.00 in0.0 mm
07:43 AM 27.3°F-2.6°C 20.3°F-6.5°C 75% 1.0 mph WNW1.6 kmh WNW -- 30.18 in1022.0 mb 0.00 in0.0 mm 0.00 in0.0 mm 0.00 in0.0 mm
07:42 AM 27.5°F-2.5°C 20.5°F-6.4°C 75% 4.0 mph NW6.4 kmh NW -- 30.18 in1022.0 mb 0.00 in0.0 mm 0.00 in0.0 mm 0.00 in0.0 mm
07:41 AM 27.0°F-2.8°C 21.5°F-5.8°C 80% Calm Calm -- 30.18 in1022.0 mb 0.00 in0.0 mm 0.00 in0.0 mm 0.00 in0.0 mm
07:40 AM 26.2°F-3.2°C 20.2°F-6.6°C 78% Calm Calm -- 30.18 in1022.0 mb 0.00 in0.0 mm 0.00 in0.0 mm 0.00 in0.0 mm
07:39 AM 26.3°F-3.2°C 20.2°F-6.6°C 78% 2.0 mph W3.2 kmh W -- 30.18 in1022.0 mb 0.00 in0.0 mm 0.00 in0.0 mm 0.00 in0.0 mm
07:38 AM 26.6°F-3.0°C 20.6°F-6.3°C 78% 3.0 mph WNW4.8 kmh WNW -- 30.18 in1022.0 mb 0.00 in0.0 mm 0.00 in0.0 mm 0.00 in0.0 mm
07:37 AM 26.1°F-3.3°C 20.1°F-6.6°C 78% Calm Calm -- 30.18 in1022.0 mb 0.00 in0.0 mm 0.00 in0.0 mm 0.00 in0.0 mm
07:36 AM 26.1°F-3.3°C 20.1°F-6.6°C 78% Calm Calm -- 30.18 in1022.0 mb 0.00 in0.0 mm 0.00 in0.0 mm 0.00 in0.0 mm
07:35 AM 26.1°F-3.3°C 20.4°F-6.4°C 79% Calm Calm -- 30.18 in1022.0 mb 0.00 in0.0 mm 0.00 in0.0 mm 0.00 in0.0 mm
07:34 AM 25.9°F-3.4°C 20.2°F-6.6°C 79% Calm Calm -- 30.18 in1022.0 mb 0.00 in0.0 mm 0.00 in0.0 mm 0.00 in0.0 mm
07:33 AM 25.4°F-3.7°C 19.7°F-6.8°C 79% Calm Calm -- 30.18 in1022.0 mb 0.00 in0.0 mm 0.00 in0.0 mm 0.00 in0.0 mm
07:32 AM 25.2°F-3.8°C 19.8°F-6.8°C 80% Calm Calm -- 30.18 in1022.0 mb 0.00 in0.0 mm 0.00 in0.0 mm 0.00 in0.0 mm
07:31 AM 25.0°F-3.9°C 19.6°F-6.9°C 80% Calm Calm -- 30.18 in1022.0 mb 0.00 in0.0 mm 0.00 in0.0 mm 0.00 in0.0 mm
07:30 AM 24.6°F-4.1°C 19.6°F-6.9°C 81% 2.0 mph WNW3.2 kmh WNW -- 30.18 in1022.0 mb 0.00 in0.0 mm 0.00 in0.0 mm 0.00 in0.0 mm
07:29 AM 24.4°F-4.2°C 19.4°F-7.0°C 81% Calm Calm -- 30.18 in1022.0 mb 0.00 in0.0 mm 0.00 in0.0 mm 0.00 in0.0 mm
07:28 AM 24.2°F-4.3°C 19.8°F-6.8°C 83% Calm Calm -- 30.18 in1022.0 mb 0.00 in0.0 mm 0.00 in0.0 mm 0.00 in0.0 mm
07:27 AM 23.8°F-4.6°C 19.3°F-7.1°C 83% 1.0 mph W1.6 kmh W -- 30.18 in1022.0 mb 0.00 in0.0 mm 0.00 in0.0 mm 0.00 in0.0 mm
07:26 AM 23.8°F-4.6°C 19.3°F-7.1°C 83% 1.0 mph NW1.6 kmh NW -- 30.18 in1022.0 mb 0.00 in0.0 mm 0.00 in0.0 mm 0.00 in0.0 mm
07:25 AM 23.7°F-4.6°C 19.3°F-7.1°C 83% Calm Calm -- 30.18 in1022.0 mb 0.00 in0.0 mm 0.00 in0.0 mm 0.00 in0.0 mm
07:24 AM 23.3°F-4.8°C 18.9°F-7.3°C 83% 1.0 mph WNW1.6 kmh WNW -- 30.18 in1022.0 mb 0.00 in0.0 mm 0.00 in0.0 mm 0.00 in0.0 mm
07:23 AM 23.2°F-4.9°C 18.7°F-7.4°C 83% 2.0 mph W3.2 kmh W -- 30.18 in1022.0 mb 0.00 in0.0 mm 0.00 in0.0 mm 0.00 in0.0 mm
07:22 AM 23.2°F-4.9°C 18.7°F-7.4°C 83% Calm Calm -- 30.18 in1022.0 mb 0.00 in0.0 mm 0.00 in0.0 mm 0.00 in0.0 mm
07:21 AM 23.2°F-4.9°C 18.1°F-7.7°C 81% 1.0 mph WNW1.6 kmh WNW -- 30.18 in1022.0 mb 0.00 in0.0 mm 0.00 in0.0 mm 0.00 in0.0 mm
07:20 AM 23.2°F-4.9°C 18.1°F-7.7°C 81% 3.0 mph NW4.8 kmh NW -- 30.19 in1022.4 mb 0.00 in0.0 mm 0.00 in0.0 mm 0.00 in0.0 mm
07:19 AM 23.3°F-4.8°C 18.3°F-7.6°C 81% Calm Calm -- 30.18 in1022.0 mb 0.00 in0.0 mm 0.00 in0.0 mm 0.00 in0.0 mm
07:18 AM 23.2°F-4.9°C 18.1°F-7.7°C 81% Calm Calm -- 30.19 in1022.4 mb 0.00 in0.0 mm 0.00 in0.0 mm 0.00 in0.0 mm
07:17 AM 22.9°F-5.1°C 18.4°F-7.6°C 83% Calm Calm -- 30.18 in1022.0 mb 0.00 in0.0 mm 0.00 in0.0 mm 0.00 in0.0 mm
07:16 AM 22.5°F-5.3°C 18.0°F-7.8°C 83% 1.0 mph NW1.6 kmh NW -- 30.18 in1022.0 mb 0.00 in0.0 mm 0.00 in0.0 mm 0.00 in0.0 mm
07:15 AM 22.5°F-5.3°C 18.0°F-7.8°C 83% 2.0 mph NW3.2 kmh NW -- 30.18 in1022.0 mb 0.00 in0.0 mm 0.00 in0.0 mm 0.00 in0.0 mm
07:14 AM 22.5°F-5.3°C 18.0°F-7.8°C 83% 1.0 mph W1.6 kmh W -- 30.19 in1022.4 mb 0.00 in0.0 mm 0.00 in0.0 mm 0.00 in0.0 mm
07:12 AM 22.5°F-5.3°C 18.0°F-7.8°C 83% 2.0 mph WNW3.2 kmh WNW -- 30.19 in1022.4 mb 0.00 in0.0 mm 0.00 in0.0 mm 0.00 in0.0 mm
07:11 AM 22.5°F-5.3°C 18.0°F-7.8°C 83% 2.0 mph NW3.2 kmh NW -- 30.19 in1022.4 mb 0.00 in0.0 mm 0.00 in0.0 mm 0.00 in0.0 mm
07:10 AM 22.5°F-5.3°C 18.0°F-7.8°C 83% 2.0 mph WNW3.2 kmh WNW -- 30.19 in1022.4 mb 0.00 in0.0 mm 0.00 in0.0 mm 0.00 in0.0 mm
07:09 AM 22.5°F-5.3°C 18.0°F-7.8°C 83% 2.0 mph NW3.2 kmh NW -- 30.19 in1022.4 mb 0.00 in0.0 mm 0.00 in0.0 mm 0.00 in0.0 mm
07:08 AM 22.5°F-5.3°C 18.0°F-7.8°C 83% 1.0 mph NW1.6 kmh NW -- 30.19 in1022.4 mb 0.00 in0.0 mm 0.00 in0.0 mm 0.00 in0.0 mm
07:07 AM 22.5°F-5.3°C 18.0°F-7.8°C 83% 2.0 mph NW3.2 kmh NW -- 30.19 in1022.4 mb 0.00 in0.0 mm 0.00 in0.0 mm 0.00 in0.0 mm
07:06 AM 22.5°F-5.3°C 18.0°F-7.8°C 83% 2.0 mph NW3.2 kmh NW -- 30.18 in1022.0 mb 0.00 in0.0 mm 0.00 in0.0 mm 0.00 in0.0 mm
07:05 AM 22.5°F-5.3°C 18.0°F-7.8°C 83% 2.0 mph NNW3.2 kmh NNW -- 30.19 in1022.4 mb 0.00 in0.0 mm 0.00 in0.0 mm 0.00 in0.0 mm
07:04 AM 22.5°F-5.3°C 18.0°F-7.8°C 83% 2.0 mph NW3.2 kmh NW -- 30.19 in1022.4 mb 0.00 in0.0 mm 0.00 in0.0 mm 0.00 in0.0 mm
07:03 AM 22.3°F-5.4°C 17.8°F-7.9°C 83% 2.0 mph NW3.2 kmh NW -- 30.19 in1022.4 mb 0.00 in0.0 mm 0.00 in0.0 mm 0.00 in0.0 mm
07:02 AM 22.3°F-5.4°C 18.4°F-7.6°C 85% 2.0 mph NW3.2 kmh NW -- 30.18 in1022.0 mb 0.00 in0.0 mm 0.00 in0.0 mm 0.00 in0.0 mm
07:00 AM 22.1°F-5.5°C 18.2°F-7.7°C 85% 2.0 mph W3.2 kmh W -- 30.18 in1022.0 mb 0.00 in0.0 mm 0.00 in0.0 mm 0.00 in0.0 mm
06:59 AM 21.9°F-5.6°C 18.0°F-7.8°C 85% 2.0 mph W3.2 kmh W -- 30.18 in1022.0 mb 0.00 in0.0 mm 0.00 in0.0 mm 0.00 in0.0 mm
06:58 AM 21.9°F-5.6°C 18.0°F-7.8°C 85% 2.0 mph SW3.2 kmh SW -- 30.18 in1022.0 mb 0.00 in0.0 mm 0.00 in0.0 mm 0.00 in0.0 mm
06:57 AM 21.9°F-5.6°C 18.0°F-7.8°C 85% 2.0 mph W3.2 kmh W -- 30.18 in1022.0 mb 0.00 in0.0 mm 0.00 in0.0 mm 0.00 in0.0 mm
06:56 AM 21.7°F-5.7°C 18.1°F-7.7°C 86% 2.0 mph W3.2 kmh W -- 30.18 in1022.0 mb 0.00 in0.0 mm 0.00 in0.0 mm 0.00 in0.0 mm
06:55 AM 21.6°F-5.8°C 18.0°F-7.8°C 86% 2.0 mph WNW3.2 kmh WNW -- 30.18 in1022.0 mb 0.00 in0.0 mm 0.00 in0.0 mm 0.00 in0.0 mm
06:54 AM 21.3°F-5.9°C 17.8°F-7.9°C 86% 2.0 mph W3.2 kmh W -- 30.18 in1022.0 mb 0.00 in0.0 mm 0.00 in0.0 mm 0.00 in0.0 mm
06:53 AM 21.6°F-5.8°C 18.0°F-7.8°C 86% 2.0 mph W3.2 kmh W -- 30.18 in1022.0 mb 0.00 in0.0 mm 0.00 in0.0 mm 0.00 in0.0 mm
06:52 AM 21.6°F-5.8°C 18.0°F-7.8°C 86% 2.0 mph W3.2 kmh W -- 30.19 in1022.4 mb 0.00 in0.0 mm 0.00 in0.0 mm 0.00 in0.0 mm
06:51 AM 21.6°F-5.8°C 18.0°F-7.8°C 86% 2.0 mph NW3.2 kmh NW -- 30.18 in1022.0 mb 0.00 in0.0 mm 0.00 in0.0 mm 0.00 in0.0 mm
06:50 AM 21.3°F-5.9°C 17.8°F-7.9°C 86% 2.0 mph NW3.2 kmh NW -- 30.19 in1022.4 mb 0.00 in0.0 mm 0.00 in0.0 mm 0.00 in0.0 mm
06:49 AM 21.3°F-5.9°C 17.8°F-7.9°C 86% 1.0 mph NW1.6 kmh NW -- 30.18 in1022.0 mb 0.00 in0.0 mm 0.00 in0.0 mm 0.00 in0.0 mm
06:48 AM 21.2°F-6.0°C 18.2°F-7.7°C 88% 2.0 mph WNW3.2 kmh WNW -- 30.19 in1022.4 mb 0.00 in0.0 mm 0.00 in0.0 mm 0.00 in0.0 mm
06:47 AM 20.7°F-6.3°C 18.4°F-7.6°C 91% 3.0 mph WNW4.8 kmh WNW -- 30.18 in1022.0 mb 0.00 in0.0 mm 0.00 in0.0 mm 0.00 in0.0 mm
06:46 AM 20.7°F-6.3°C 18.4°F-7.6°C 91% 3.0 mph W4.8 kmh W -- 30.18 in1022.0 mb 0.00 in0.0 mm 0.00 in0.0 mm 0.00 in0.0 mm
06:45 AM 20.7°F-6.3°C 18.4°F-7.6°C 91% 2.0 mph W3.2 kmh W -- 30.18 in1022.0 mb 0.00 in0.0 mm 0.00 in0.0 mm 0.00 in0.0 mm
06:44 AM 20.4°F-6.4°C 18.2°F-7.7°C 91% 2.0 mph W3.2 kmh W -- 30.18 in1022.0 mb 0.00 in0.0 mm 0.00 in0.0 mm 0.00 in0.0 mm
06:43 AM 20.4°F-6.4°C 18.2°F-7.7°C 91% 3.0 mph W4.8 kmh W -- 30.19 in1022.4 mb 0.00 in0.0 mm 0.00 in0.0 mm 0.00 in0.0 mm
06:42 AM 20.2°F-6.6°C 17.9°F-7.8°C 91% 3.0 mph W4.8 kmh W -- 30.19 in1022.4 mb 0.00 in0.0 mm 0.00 in0.0 mm 0.00 in0.0 mm
06:41 AM 20.2°F-6.6°C 17.9°F-7.8°C 91% 2.0 mph WSW3.2 kmh WSW -- 30.19 in1022.4 mb 0.00 in0.0 mm 0.00 in0.0 mm 0.00 in0.0 mm
06:40 AM 20.0°F-6.7°C 17.7°F-7.9°C 91% 1.0 mph W1.6 kmh W -- 30.18 in1022.0 mb 0.00 in0.0 mm 0.00 in0.0 mm 0.00 in0.0 mm
06:39 AM 20.0°F-6.7°C 17.7°F-7.9°C 91% 3.0 mph NW4.8 kmh NW -- 30.19 in1022.4 mb 0.00 in0.0 mm 0.00 in0.0 mm 0.00 in0.0 mm
06:38 AM 20.0°F-6.7°C 17.7°F-7.9°C 91% 3.0 mph W4.8 kmh W -- 30.18 in1022.0 mb 0.00 in0.0 mm 0.00 in0.0 mm 0.00 in0.0 mm
06:37 AM 20.0°F-6.7°C 17.7°F-7.9°C 91% 2.0 mph W3.2 kmh W -- 30.18 in1022.0 mb 0.00 in0.0 mm 0.00 in0.0 mm 0.00 in0.0 mm
06:36 AM 20.0°F-6.7°C 17.7°F-7.9°C 91% 2.0 mph WNW3.2 kmh WNW -- 30.18 in1022.0 mb 0.00 in0.0 mm 0.00 in0.0 mm 0.00 in0.0 mm
06:35 AM 20.2°F-6.6°C 17.9°F-7.8°C 91% 2.0 mph WSW3.2 kmh WSW -- 30.19 in1022.4 mb 0.00 in0.0 mm 0.00 in0.0 mm 0.00 in0.0 mm
06:34 AM 20.2°F-6.6°C 17.9°F-7.8°C 91% 3.0 mph SW4.8 kmh SW -- 30.19 in1022.4 mb 0.00 in0.0 mm 0.00 in0.0 mm 0.00 in0.0 mm
06:33 AM 20.2°F-6.6°C 17.9°F-7.8°C 91% 3.0 mph WSW4.8 kmh WSW -- 30.19 in1022.4 mb 0.00 in0.0 mm 0.00 in0.0 mm 0.00 in0.0 mm
06:31 AM 20.2°F-6.6°C 17.9°F-7.8°C 91% 3.0 mph W4.8 kmh W -- 30.19 in1022.4 mb 0.00 in0.0 mm 0.00 in0.0 mm 0.00 in0.0 mm
06:28 AM 20.2°F-6.6°C 17.9°F-7.8°C 91% 4.0 mph W6.4 kmh W -- 30.19 in1022.4 mb 0.00 in0.0 mm 0.00 in0.0 mm 0.00 in0.0 mm
06:26 AM 20.2°F-6.6°C 17.9°F-7.8°C 91% 5.0 mph W8.0 kmh W -- 30.19 in1022.4 mb 0.00 in0.0 mm 0.00 in0.0 mm 0.00 in0.0 mm
06:25 AM 20.0°F-6.7°C 18.2°F-7.7°C 93% 3.0 mph W4.8 kmh W -- 30.18 in1022.0 mb 0.00 in0.0 mm 0.00 in0.0 mm 0.00 in0.0 mm
06:24 AM 20.0°F-6.7°C 18.2°F-7.7°C 93% 4.0 mph W6.4 kmh W -- 30.19 in1022.4 mb 0.00 in0.0 mm 0.00 in0.0 mm 0.00 in0.0 mm
06:23 AM 19.8°F-6.8°C 18.0°F-7.8°C 93% 4.0 mph WSW6.4 kmh WSW -- 30.19 in1022.4 mb 0.00 in0.0 mm 0.00 in0.0 mm 0.00 in0.0 mm
06:22 AM 19.7°F-6.8°C 18.0°F-7.8°C 93% 3.0 mph W4.8 kmh W -- 30.19 in1022.4 mb 0.00 in0.0 mm 0.00 in0.0 mm 0.00 in0.0 mm
06:21 AM 19.7°F-6.8°C 18.0°F-7.8°C 93% 5.0 mph W8.0 kmh W -- 30.19 in1022.4 mb 0.00 in0.0 mm 0.00 in0.0 mm 0.00 in0.0 mm
06:20 AM 19.3°F-7.1°C 17.5°F-8.1°C 93% 5.0 mph W8.0 kmh W -- 30.19 in1022.4 mb 0.00 in0.0 mm 0.00 in0.0 mm 0.00 in0.0 mm
06:16 AM 19.2°F-7.1°C 17.5°F-8.1°C 93% 4.0 mph W6.4 kmh W -- 30.19 in1022.4 mb 0.00 in0.0 mm 0.00 in0.0 mm 0.00 in0.0 mm
06:14 AM 19.2°F-7.1°C 17.5°F-8.1°C 93% 3.0 mph W4.8 kmh W -- 30.19 in1022.4 mb 0.00 in0.0 mm 0.00 in0.0 mm 0.00 in0.0 mm
06:13 AM 19.2°F-7.1°C 17.5°F-8.1°C 93% 2.0 mph WSW3.2 kmh WSW -- 30.20 in1022.7 mb 0.00 in0.0 mm 0.00 in0.0 mm 0.00 in0.0 mm
06:12 AM 19.2°F-7.1°C 17.5°F-8.1°C 93% 2.0 mph W3.2 kmh W -- 30.20 in1022.7 mb 0.00 in0.0 mm 0.00 in0.0 mm 0.00 in0.0 mm
06:11 AM 19.2°F-7.1°C 17.5°F-8.1°C 93% 1.0 mph W1.6 kmh W -- 30.20 in1022.7 mb 0.00 in0.0 mm 0.00 in0.0 mm 0.00 in0.0 mm
06:10 AM 19.2°F-7.1°C 17.5°F-8.1°C 93% 2.0 mph WNW3.2 kmh WNW -- 30.20 in1022.7 mb 0.00 in0.0 mm 0.00 in0.0 mm 0.00 in0.0 mm
06:09 AM 19.3°F-7.1°C 17.5°F-8.1°C 93% 2.0 mph WNW3.2 kmh WNW -- 30.20 in1022.7 mb 0.00 in0.0 mm 0.00 in0.0 mm 0.00 in0.0 mm
06:08 AM 19.3°F-7.1°C 17.5°F-8.1°C 93% 2.0 mph W3.2 kmh W -- 30.20 in1022.7 mb 0.00 in0.0 mm 0.00 in0.0 mm 0.00 in0.0 mm
06:07 AM 19.3°F-7.1°C 17.5°F-8.1°C 93% Calm Calm -- 30.20 in1022.7 mb 0.00 in0.0 mm 0.00 in0.0 mm 0.00 in0.0 mm
06:06 AM 19.3°F-7.1°C 17.5°F-8.1°C 93% 1.0 mph W1.6 kmh W -- 30.20 in1022.7 mb 0.00 in0.0 mm 0.00 in0.0 mm 0.00 in0.0 mm
06:05 AM 19.3°F-7.1°C 17.5°F-8.1°C 93% 3.0 mph W4.8 kmh W -- 30.19 in1022.4 mb 0.00 in0.0 mm 0.00 in0.0 mm 0.00 in0.0 mm
06:04 AM 19.3°F-7.1°C 17.5°F-8.1°C 93% 4.0 mph W6.4 kmh W -- 30.20 in1022.7 mb 0.00 in0.0 mm 0.00 in0.0 mm 0.00 in0.0 mm
06:03 AM 19.2°F-7.1°C 17.5°F-8.1°C 93% 4.0 mph WSW6.4 kmh WSW -- 30.20 in1022.7 mb 0.00 in0.0 mm 0.00 in0.0 mm 0.00 in0.0 mm
06:02 AM 19.2°F-7.1°C 17.5°F-8.1°C 93% 2.0 mph W3.2 kmh W -- 30.20 in1022.7 mb 0.00 in0.0 mm 0.00 in0.0 mm 0.00 in0.0 mm
06:01 AM 19.2°F-7.1°C 17.5°F-8.1°C 93% 2.0 mph WSW3.2 kmh WSW -- 30.19 in1022.4 mb 0.00 in0.0 mm 0.00 in0.0 mm 0.00 in0.0 mm
06:00 AM 19.0°F-7.2°C 17.3°F-8.2°C 93% 4.0 mph WSW6.4 kmh WSW -- 30.20 in1022.7 mb 0.00 in0.0 mm 0.00 in0.0 mm 0.00 in0.0 mm
05:59 AM 19.0°F-7.2°C 17.3°F-8.2°C 93% 4.0 mph W6.4 kmh W -- 30.20 in1022.7 mb 0.00 in0.0 mm 0.00 in0.0 mm 0.00 in0.0 mm
05:58 AM 19.2°F-7.1°C 17.5°F-8.1°C 93% 3.0 mph W4.8 kmh W -- 30.20 in1022.7 mb 0.00 in0.0 mm 0.00 in0.0 mm 0.00 in0.0 mm
05:57 AM 19.3°F-7.1°C 17.5°F-8.1°C 93% 1.0 mph W1.6 kmh W -- 30.19 in1022.4 mb 0.00 in0.0 mm 0.00 in0.0 mm 0.00 in0.0 mm
05:56 AM 19.6°F-6.9°C 17.9°F-7.8°C 93% 2.0 mph W3.2 kmh W -- 30.20 in1022.7 mb 0.00 in0.0 mm 0.00 in0.0 mm 0.00 in0.0 mm
05:55 AM 19.3°F-7.1°C 17.5°F-8.1°C 93% Calm Calm -- 30.20 in1022.7 mb 0.00 in0.0 mm 0.00 in0.0 mm 0.00 in0.0 mm
05:54 AM 19.3°F-7.1°C 17.5°F-8.1°C 93% 2.0 mph SSW3.2 kmh SSW -- 30.20 in1022.7 mb 0.00 in0.0 mm 0.00 in0.0 mm 0.00 in0.0 mm
05:53 AM 19.3°F-7.1°C 17.5°F-8.1°C 93% 1.0 mph S1.6 kmh S -- 30.20 in1022.7 mb 0.00 in0.0 mm 0.00 in0.0 mm 0.00 in0.0 mm
05:52 AM 19.6°F-6.9°C 17.9°F-7.8°C 93% 1.0 mph W1.6 kmh W -- 30.21 in1023.0 mb 0.00 in0.0 mm 0.00 in0.0 mm 0.00 in0.0 mm
05:51 AM 19.3°F-7.1°C 17.5°F-8.1°C 93% 4.0 mph W6.4 kmh W -- 30.20 in1022.7 mb 0.00 in0.0 mm 0.00 in0.0 mm 0.00 in0.0 mm
05:50 AM 19.3°F-7.1°C 17.5°F-8.1°C 93% 1.0 mph 1.6 kmh -- 30.20 in1022.7 mb 0.00 in0.0 mm 0.00 in0.0 mm 0.00 in0.0 mm
05:49 AM 19.0°F-7.2°C 17.8°F-7.9°C 95% Calm Calm -- 30.20 in1022.7 mb 0.00 in0.0 mm 0.00 in0.0 mm 0.00 in0.0 mm
05:48 AM 18.7°F-7.4°C 17.5°F-8.1°C 95% 1.0 mph W1.6 kmh W -- 30.21 in1023.0 mb 0.00 in0.0 mm 0.00 in0.0 mm 0.00 in0.0 mm
05:47 AM 18.5°F-7.5°C 17.3°F-8.2°C 95% 3.0 mph W4.8 kmh W -- 30.20 in1022.7 mb 0.00 in0.0 mm 0.00 in0.0 mm 0.00 in0.0 mm
05:46 AM 18.5°F-7.5°C 17.3°F-8.2°C 95% 4.0 mph W6.4 kmh W -- 30.20 in1022.7 mb 0.00 in0.0 mm 0.00 in0.0 mm 0.00 in0.0 mm
05:45 AM 18.5°F-7.5°C 17.3°F-8.2°C 95% 3.0 mph W4.8 kmh W -- 30.20 in1022.7 mb 0.00 in0.0 mm 0.00 in0.0 mm 0.00 in0.0 mm
05:44 AM 18.5°F-7.5°C 17.3°F-8.2°C 95% 2.0 mph W3.2 kmh W -- 30.20 in1022.7 mb 0.00 in0.0 mm 0.00 in0.0 mm 0.00 in0.0 mm
05:43 AM 18.5°F-7.5°C 17.5°F-8.1°C 96% 3.0 mph W4.8 kmh W -- 30.20 in1022.7 mb 0.00 in0.0 mm 0.00 in0.0 mm 0.00 in0.0 mm
05:42 AM 18.2°F-7.7°C 17.2°F-8.2°C 96% 3.0 mph NNE4.8 kmh NNE -- 30.21 in1023.0 mb 0.00 in0.0 mm 0.00 in0.0 mm 0.00 in0.0 mm
05:41 AM 18.2°F-7.7°C 17.2°F-8.2°C 96% 2.0 mph S3.2 kmh S -- 30.21 in1023.0 mb 0.00 in0.0 mm 0.00 in0.0 mm 0.00 in0.0 mm
05:40 AM 18.1°F-7.7°C 17.2°F-8.2°C 96% 3.0 mph S4.8 kmh S -- 30.21 in1023.0 mb 0.00 in0.0 mm 0.00 in0.0 mm 0.00 in0.0 mm
05:39 AM 17.9°F-7.8°C 17.0°F-8.3°C 96% 2.0 mph W3.2 kmh W -- 30.21 in1023.0 mb 0.00 in0.0 mm 0.00 in0.0 mm 0.00 in0.0 mm
05:38 AM 17.9°F-7.8°C 17.0°F-8.3°C 96% 2.0 mph WSW3.2 kmh WSW -- 30.21 in1023.0 mb 0.00 in0.0 mm 0.00 in0.0 mm 0.00 in0.0 mm
05:37 AM 18.1°F-7.7°C 17.2°F-8.2°C 96% 2.0 mph W3.2 kmh W -- 30.21 in1023.0 mb 0.00 in0.0 mm 0.00 in0.0 mm 0.00 in0.0 mm
05:36 AM 18.1°F-7.7°C 17.2°F-8.2°C 96% 3.0 mph W4.8 kmh W -- 30.20 in1022.7 mb 0.00 in0.0 mm 0.00 in0.0 mm 0.00 in0.0 mm
05:35 AM 17.7°F-7.9°C 16.8°F-8.4°C 96% 1.0 mph S1.6 kmh S -- 30.21 in1023.0 mb 0.00 in0.0 mm 0.00 in0.0 mm 0.00 in0.0 mm
05:34 AM 17.1°F-8.3°C 16.1°F-8.8°C 96% 2.0 mph SSW3.2 kmh SSW -- 30.21 in1023.0 mb 0.00 in0.0 mm 0.00 in0.0 mm 0.00 in0.0 mm
05:33 AM 17.1°F-8.3°C 16.1°F-8.8°C 96% 2.0 mph W3.2 kmh W -- 30.21 in1023.0 mb 0.00 in0.0 mm 0.00 in0.0 mm 0.00 in0.0 mm
05:32 AM 17.1°F-8.3°C 16.1°F-8.8°C 96% 2.0 mph SW3.2 kmh SW -- 30.20 in1022.7 mb 0.00 in0.0 mm 0.00 in0.0 mm 0.00 in0.0 mm
05:31 AM 16.2°F-8.8°C 15.2°F-9.3°C 96% Calm Calm -- 30.21 in1023.0 mb 0.00 in0.0 mm 0.00 in0.0 mm 0.00 in0.0 mm
05:30 AM 16.2°F-8.8°C 15.2°F-9.3°C 96% Calm Calm -- 30.21 in1023.0 mb 0.00 in0.0 mm 0.00 in0.0 mm 0.00 in0.0 mm
05:29 AM 15.9°F-8.9°C 15.0°F-9.4°C 96% 2.0 mph WSW3.2 kmh WSW -- 30.20 in1022.7 mb 0.00 in0.0 mm 0.00 in0.0 mm 0.00 in0.0 mm
05:28 AM 15.8°F-9.0°C 14.6°F-9.7°C 95% 2.0 mph W3.2 kmh W -- 30.20 in1022.7 mb 0.00 in0.0 mm 0.00 in0.0 mm 0.00 in0.0 mm
05:27 AM 15.6°F-9.1°C 14.4°F-9.8°C 95% 2.0 mph W3.2 kmh W -- 30.20 in1022.7 mb 0.00 in0.0 mm 0.00 in0.0 mm 0.00 in0.0 mm
05:26 AM 15.6°F-9.1°C 14.4°F-9.8°C 95% Calm Calm -- 30.21 in1023.0 mb 0.00 in0.0 mm 0.00 in0.0 mm 0.00 in0.0 mm
05:25 AM 15.6°F-9.1°C 14.4°F-9.8°C 95% Calm Calm -- 30.20 in1022.7 mb 0.00 in0.0 mm 0.00 in0.0 mm 0.00 in0.0 mm
05:23 AM 15.6°F-9.1°C 14.4°F-9.8°C 95% Calm Calm -- 30.21 in1023.0 mb 0.00 in0.0 mm 0.00 in0.0 mm 0.00 in0.0 mm
05:22 AM 15.8°F-9.0°C 14.6°F-9.7°C 95% Calm Calm -- 30.21 in1023.0 mb 0.00 in0.0 mm 0.00 in0.0 mm 0.00 in0.0 mm
05:21 AM 15.8°F-9.0°C 14.6°F-9.7°C 95% Calm Calm -- 30.20 in1022.7 mb 0.00 in0.0 mm 0.00 in0.0 mm 0.00 in0.0 mm
05:20 AM 15.8°F-9.0°C 14.6°F-9.7°C 95% Calm Calm -- 30.21 in1023.0 mb 0.00 in0.0 mm 0.00 in0.0 mm 0.00 in0.0 mm
05:18 AM 15.8°F-9.0°C 14.6°F-9.7°C 95% Calm Calm -- 30.21 in1023.0 mb 0.00 in0.0 mm 0.00 in0.0 mm 0.00 in0.0 mm
05:17 AM 15.8°F-9.0°C 14.6°F-9.7°C 95% Calm Calm -- 30.21 in1023.0 mb 0.00 in0.0 mm 0.00 in0.0 mm 0.00 in0.0 mm
05:16 AM 15.8°F-9.0°C 14.6°F-9.7°C 95% Calm Calm -- 30.21 in1023.0 mb 0.00 in0.0 mm 0.00 in0.0 mm 0.00 in0.0 mm
05:15 AM 15.8°F-9.0°C 14.6°F-9.7°C 95% Calm Calm -- 30.21 in1023.0 mb 0.00 in0.0 mm 0.00 in0.0 mm 0.00 in0.0 mm
05:14 AM 15.8°F-9.0°C 14.6°F-9.7°C 95% Calm Calm -- 30.21 in1023.0 mb 0.00 in0.0 mm 0.00 in0.0 mm 0.00 in0.0 mm
05:13 AM 15.8°F-9.0°C 14.6°F-9.7°C 95% Calm Calm -- 30.21 in1023.0 mb 0.00 in0.0 mm 0.00 in0.0 mm 0.00 in0.0 mm
05:12 AM 15.8°F-9.0°C 14.6°F-9.7°C 95% Calm Calm -- 30.21 in1023.0 mb 0.00 in0.0 mm 0.00 in0.0 mm 0.00 in0.0 mm
05:11 AM 15.8°F-9.0°C 14.6°F-9.7°C 95% 1.0 mph W1.6 kmh W -- 30.21 in1023.0 mb 0.00 in0.0 mm 0.00 in0.0 mm 0.00 in0.0 mm
05:10 AM 15.8°F-9.0°C 14.6°F-9.7°C 95% Calm Calm -- 30.21 in1023.0 mb 0.00 in0.0 mm 0.00 in0.0 mm 0.00 in0.0 mm
05:09 AM 15.8°F-9.0°C 14.6°F-9.7°C 95% 2.0 mph WSW3.2 kmh WSW -- 30.21 in1023.0 mb 0.00 in0.0 mm 0.00 in0.0 mm 0.00 in0.0 mm
05:08 AM 15.6°F-9.1°C 14.4°F-9.8°C 95% 2.0 mph W3.2 kmh W -- 30.21 in1023.0 mb 0.00 in0.0 mm 0.00 in0.0 mm 0.00 in0.0 mm
05:07 AM 15.2°F-9.3°C 14.1°F-9.9°C 95% 2.0 mph W3.2 kmh W -- 30.21 in1023.0 mb 0.00 in0.0 mm 0.00 in0.0 mm 0.00 in0.0 mm
05:06 AM 15.2°F-9.3°C 13.6°F-10.2°C 93% 1.0 mph WSW1.6 kmh WSW -- 30.21 in1023.0 mb 0.00 in0.0 mm 0.00 in0.0 mm 0.00 in0.0 mm
05:05 AM 15.2°F-9.3°C 13.6°F-10.2°C 93% Calm Calm -- 30.21 in1023.0 mb 0.00 in0.0 mm 0.00 in0.0 mm 0.00 in0.0 mm
05:04 AM 15.2°F-9.3°C 13.6°F-10.2°C 93% 1.0 mph WSW1.6 kmh WSW -- 30.21 in1023.0 mb 0.00 in0.0 mm 0.00 in0.0 mm 0.00 in0.0 mm
05:03 AM 15.2°F-9.3°C 13.6°F-10.2°C 93% 1.0 mph W1.6 kmh W -- 30.21 in1023.0 mb 0.00 in0.0 mm 0.00 in0.0 mm 0.00 in0.0 mm
05:02 AM 15.2°F-9.3°C 13.6°F-10.2°C 93% Calm Calm -- 30.21 in1023.0 mb 0.00 in0.0 mm 0.00 in0.0 mm 0.00 in0.0 mm
05:01 AM 15.3°F-9.3°C 13.6°F-10.2°C 93% Calm Calm -- 30.22 in1023.4 mb 0.00 in0.0 mm 0.00 in0.0 mm 0.00 in0.0 mm
05:00 AM 15.3°F-9.3°C 13.6°F-10.2°C 93% Calm Calm -- 30.21 in1023.0 mb 0.00 in0.0 mm 0.00 in0.0 mm 0.00 in0.0 mm
04:58 AM 15.3°F-9.3°C 13.1°F-10.5°C 91% Calm Calm -- 30.21 in1023.0 mb 0.00 in0.0 mm 0.00 in0.0 mm 0.00 in0.0 mm
04:56 AM 15.6°F-9.1°C 13.4°F-10.3°C 91% Calm Calm -- 30.21 in1023.0 mb 0.00 in0.0 mm 0.00 in0.0 mm 0.00 in0.0 mm
04:55 AM 15.6°F-9.1°C 13.4°F-10.3°C 91% Calm Calm -- 30.21 in1023.0 mb 0.00 in0.0 mm 0.00 in0.0 mm 0.00 in0.0 mm
04:54 AM 15.6°F-9.1°C 13.4°F-10.3°C 91% Calm Calm -- 30.21 in1023.0 mb 0.00 in0.0 mm 0.00 in0.0 mm 0.00 in0.0 mm
04:53 AM 15.8°F-9.0°C 13.6°F-10.2°C 91% Calm Calm -- 30.21 in1023.0 mb 0.00 in0.0 mm 0.00 in0.0 mm 0.00 in0.0 mm
04:52 AM 15.8°F-9.0°C 13.6°F-10.2°C 91% Calm Calm -- 30.22 in1023.4 mb 0.00 in0.0 mm 0.00 in0.0 mm 0.00 in0.0 mm
04:51 AM 15.9°F-8.9°C 13.8°F-10.1°C 91% Calm Calm -- 30.22 in1023.4 mb 0.00 in0.0 mm 0.00 in0.0 mm 0.00 in0.0 mm
04:50 AM 15.9°F-8.9°C 13.5°F-10.3°C 90% Calm Calm -- 30.22 in1023.4 mb 0.00 in0.0 mm 0.00 in0.0 mm 0.00 in0.0 mm
04:49 AM 15.9°F-8.9°C 13.5°F-10.3°C 90% 2.0 mph S3.2 kmh S -- 30.22 in1023.4 mb 0.00 in0.0 mm 0.00 in0.0 mm 0.00 in0.0 mm
04:48 AM 15.9°F-8.9°C 13.0°F-10.6°C 88% 3.0 mph S4.8 kmh S -- 30.22 in1023.4 mb 0.00 in0.0 mm 0.00 in0.0 mm 0.00 in0.0 mm
04:47 AM 16.2°F-8.8°C 13.2°F-10.4°C 88% 3.0 mph SSE4.8 kmh SSE -- 30.22 in1023.4 mb 0.00 in0.0 mm 0.00 in0.0 mm 0.00 in0.0 mm
04:46 AM 15.8°F-9.0°C 13.4°F-10.3°C 90% 3.0 mph S4.8 kmh S -- 30.22 in1023.4 mb 0.00 in0.0 mm 0.00 in0.0 mm 0.00 in0.0 mm
04:45 AM 15.6°F-9.1°C 13.4°F-10.3°C 91% 6.0 mph SSE9.7 kmh SSE -- 30.22 in1023.4 mb 0.00 in0.0 mm 0.00 in0.0 mm 0.00 in0.0 mm
04:44 AM 15.6°F-9.1°C 13.4°F-10.3°C 91% 1.0 mph W1.6 kmh W -- 30.22 in1023.4 mb 0.00 in0.0 mm 0.00 in0.0 mm 0.00 in0.0 mm
04:42 AM 15.3°F-9.3°C 13.1°F-10.5°C 91% Calm Calm -- 30.22 in1023.4 mb 0.00 in0.0 mm 0.00 in0.0 mm 0.00 in0.0 mm
04:36 AM 15.3°F-9.3°C 13.1°F-10.5°C 91% Calm Calm -- 30.22 in1023.4 mb 0.00 in0.0 mm 0.00 in0.0 mm 0.00 in0.0 mm
04:35 AM 15.3°F-9.3°C 13.1°F-10.5°C 91% Calm Calm -- 30.22 in1023.4 mb 0.00 in0.0 mm 0.00 in0.0 mm 0.00 in0.0 mm
04:34 AM 15.3°F-9.3°C 13.1°F-10.5°C 91% Calm Calm -- 30.22 in1023.4 mb 0.00 in0.0 mm 0.00 in0.0 mm 0.00 in0.0 mm
04:33 AM 15.3°F-9.3°C 13.1°F-10.5°C 91% Calm Calm -- 30.22 in1023.4 mb 0.00 in0.0 mm 0.00 in0.0 mm 0.00 in0.0 mm
04:32 AM 15.3°F-9.3°C 13.1°F-10.5°C 91% Calm Calm -- 30.23 in1023.7 mb 0.00 in0.0 mm 0.00 in0.0 mm 0.00 in0.0 mm
04:31 AM 15.3°F-9.3°C 13.1°F-10.5°C 91% Calm Calm -- 30.23 in1023.7 mb 0.00 in0.0 mm 0.00 in0.0 mm 0.00 in0.0 mm
04:28 AM 15.3°F-9.3°C 13.1°F-10.5°C 91% Calm Calm -- 30.22 in1023.4 mb 0.00 in0.0 mm 0.00 in0.0 mm 0.00 in0.0 mm
04:27 AM 15.3°F-9.3°C 13.1°F-10.5°C 91% Calm Calm -- 30.22 in1023.4 mb 0.00 in0.0 mm 0.00 in0.0 mm 0.00 in0.0 mm
04:26 AM 15.3°F-9.3°C 13.1°F-10.5°C 91% Calm Calm -- 30.22 in1023.4 mb 0.00 in0.0 mm 0.00 in0.0 mm 0.00 in0.0 mm
04:24 AM 15.3°F-9.3°C 12.8°F-10.7°C 90% Calm Calm -- 30.22 in1023.4 mb 0.00 in0.0 mm 0.00 in0.0 mm 0.00 in0.0 mm
04:23 AM 15.6°F-9.1°C 13.2°F-10.4°C 90% Calm Calm -- 30.22 in1023.4 mb 0.00 in0.0 mm 0.00 in0.0 mm 0.00 in0.0 mm
04:22 AM 15.6°F-9.1°C 13.2°F-10.4°C 90% Calm Calm -- 30.23 in1023.7 mb 0.00 in0.0 mm 0.00 in0.0 mm 0.00 in0.0 mm
04:21 AM 15.6°F-9.1°C 13.2°F-10.4°C 90% Calm Calm -- 30.22 in1023.4 mb 0.00 in0.0 mm 0.00 in0.0 mm 0.00 in0.0 mm
04:20 AM 15.6°F-9.1°C 13.2°F-10.4°C 90% Calm Calm -- 30.23 in1023.7 mb 0.00 in0.0 mm 0.00 in0.0 mm 0.00 in0.0 mm
04:19 AM 15.8°F-9.0°C 12.8°F-10.7°C 88% Calm Calm -- 30.22 in1023.4 mb 0.00 in0.0 mm 0.00 in0.0 mm 0.00 in0.0 mm
04:18 AM 15.9°F-8.9°C 13.0°F-10.6°C 88% Calm Calm -- 30.23 in1023.7 mb 0.00 in0.0 mm 0.00 in0.0 mm 0.00 in0.0 mm
04:16 AM 16.2°F-8.8°C 13.2°F-10.4°C 88% Calm Calm -- 30.23 in1023.7 mb 0.00 in0.0 mm 0.00 in0.0 mm 0.00 in0.0 mm
04:15 AM 16.2°F-8.8°C 13.2°F-10.4°C 88% Calm Calm -- 30.23 in1023.7 mb 0.00 in0.0 mm 0.00 in0.0 mm 0.00 in0.0 mm
04:14 AM 16.2°F-8.8°C 13.2°F-10.4°C 88% Calm Calm -- 30.23 in1023.7 mb 0.00 in0.0 mm 0.00 in0.0 mm 0.00 in0.0 mm
04:13 AM 16.2°F-8.8°C 13.7°F-10.2°C 90% Calm Calm -- 30.23 in1023.7 mb 0.00 in0.0 mm 0.00 in0.0 mm 0.00 in0.0 mm
04:12 AM 16.2°F-8.8°C 13.7°F-10.2°C 90% Calm Calm -- 30.23 in1023.7 mb 0.00 in0.0 mm 0.00 in0.0 mm 0.00 in0.0 mm
04:11 AM 16.2°F-8.8°C 14.0°F-10.0°C 91% Calm Calm -- 30.23 in1023.7 mb 0.00 in0.0 mm 0.00 in0.0 mm 0.00 in0.0 mm
04:10 AM 16.2°F-8.8°C 14.0°F-10.0°C 91% 1.0 mph W1.6 kmh W -- 30.23 in1023.7 mb 0.00 in0.0 mm 0.00 in0.0 mm 0.00 in0.0 mm
04:09 AM 16.2°F-8.8°C 14.0°F-10.0°C 91% 2.0 mph WNW3.2 kmh WNW -- 30.23 in1023.7 mb 0.00 in0.0 mm 0.00 in0.0 mm 0.00 in0.0 mm
04:08 AM 16.2°F-8.8°C 14.0°F-10.0°C 91% 2.0 mph W3.2 kmh W -- 30.23 in1023.7 mb 0.00 in0.0 mm 0.00 in0.0 mm 0.00 in0.0 mm
04:06 AM 16.2°F-8.8°C 14.0°F-10.0°C 91% 2.0 mph WNW3.2 kmh WNW -- 30.23 in1023.7 mb 0.00 in0.0 mm 0.00 in0.0 mm 0.00 in0.0 mm
04:04 AM 16.2°F-8.8°C 14.0°F-10.0°C 91% 3.0 mph WNW4.8 kmh WNW -- 30.23 in1023.7 mb 0.00 in0.0 mm 0.00 in0.0 mm 0.00 in0.0 mm
04:03 AM 16.2°F-8.8°C 14.0°F-10.0°C 91% 2.0 mph WNW3.2 kmh WNW -- 30.23 in1023.7 mb 0.00 in0.0 mm 0.00 in0.0 mm 0.00 in0.0 mm
04:02 AM 16.2°F-8.8°C 14.0°F-10.0°C 91% 2.0 mph NW3.2 kmh NW -- 30.23 in1023.7 mb 0.00 in0.0 mm 0.00 in0.0 mm 0.00 in0.0 mm
04:01 AM 16.2°F-8.8°C 14.0°F-10.0°C 91% 2.0 mph W3.2 kmh W -- 30.23 in1023.7 mb 0.00 in0.0 mm 0.00 in0.0 mm 0.00 in0.0 mm
04:00 AM 16.2°F-8.8°C 14.0°F-10.0°C 91% 3.0 mph W4.8 kmh W -- 30.23 in1023.7 mb 0.00 in0.0 mm 0.00 in0.0 mm 0.00 in0.0 mm
03:59 AM 16.2°F-8.8°C 14.0°F-10.0°C 91% 3.0 mph WSW4.8 kmh WSW -- 30.24 in1024.0 mb 0.00 in0.0 mm 0.00 in0.0 mm 0.00 in0.0 mm
03:58 AM 16.2°F-8.8°C 14.0°F-10.0°C 91% 2.0 mph WNW3.2 kmh WNW -- 30.23 in1023.7 mb 0.00 in0.0 mm 0.00 in0.0 mm 0.00 in0.0 mm
03:57 AM 16.2°F-8.8°C 14.0°F-10.0°C 91% 2.0 mph W3.2 kmh W -- 30.23 in1023.7 mb 0.00 in0.0 mm 0.00 in0.0 mm 0.00 in0.0 mm
03:56 AM 16.2°F-8.8°C 14.0°F-10.0°C 91% 2.0 mph WNW3.2 kmh WNW -- 30.23 in1023.7 mb 0.00 in0.0 mm 0.00 in0.0 mm 0.00 in0.0 mm
03:55 AM 16.2°F-8.8°C 14.5°F-9.7°C 93% 3.0 mph NW4.8 kmh NW -- 30.23 in1023.7 mb 0.00 in0.0 mm 0.00 in0.0 mm 0.00 in0.0 mm
03:54 AM 16.2°F-8.8°C 14.5°F-9.7°C 93% 3.0 mph WNW4.8 kmh WNW -- 30.24 in1024.0 mb 0.00 in0.0 mm 0.00 in0.0 mm 0.00 in0.0 mm
03:53 AM 16.2°F-8.8°C 14.5°F-9.7°C 93% 3.0 mph NW4.8 kmh NW -- 30.24 in1024.0 mb 0.00 in0.0 mm 0.00 in0.0 mm 0.00 in0.0 mm
03:51 AM 15.8°F-9.0°C 14.1°F-9.9°C 93% 3.0 mph WNW4.8 kmh WNW -- 30.24 in1024.0 mb 0.00 in0.0 mm 0.00 in0.0 mm 0.00 in0.0 mm
03:50 AM 15.6°F-9.1°C 13.9°F-10.1°C 93% 3.0 mph NW4.8 kmh NW -- 30.24 in1024.0 mb 0.00 in0.0 mm 0.00 in0.0 mm 0.00 in0.0 mm
03:49 AM 15.6°F-9.1°C 13.9°F-10.1°C 93% 3.0 mph WNW4.8 kmh WNW -- 30.23 in1023.7 mb 0.00 in0.0 mm 0.00 in0.0 mm 0.00 in0.0 mm
03:48 AM 15.6°F-9.1°C 13.9°F-10.1°C 93% 2.0 mph WNW3.2 kmh WNW -- 30.24 in1024.0 mb 0.00 in0.0 mm 0.00 in0.0 mm 0.00 in0.0 mm
03:47 AM 15.6°F-9.1°C 13.9°F-10.1°C 93% 2.0 mph W3.2 kmh W -- 30.24 in1024.0 mb 0.00 in0.0 mm 0.00 in0.0 mm 0.00 in0.0 mm
03:46 AM 15.6°F-9.1°C 13.9°F-10.1°C 93% 3.0 mph WNW4.8 kmh WNW -- 30.24 in1024.0 mb 0.00 in0.0 mm 0.00 in0.0 mm 0.00 in0.0 mm
03:45 AM 15.6°F-9.1°C 13.9°F-10.1°C 93% 2.0 mph WNW3.2 kmh WNW -- 30.24 in1024.0 mb 0.00 in0.0 mm 0.00 in0.0 mm 0.00 in0.0 mm
03:44 AM 15.6°F-9.1°C 13.9°F-10.1°C 93% 3.0 mph WNW4.8 kmh WNW -- 30.24 in1024.0 mb 0.00 in0.0 mm 0.00 in0.0 mm 0.00 in0.0 mm
03:42 AM 15.3°F-9.3°C 13.6°F-10.2°C 93% 2.0 mph WNW3.2 kmh WNW -- 30.24 in1024.0 mb 0.00 in0.0 mm 0.00 in0.0 mm 0.00 in0.0 mm
03:41 AM 15.3°F-9.3°C 13.6°F-10.2°C 93% 3.0 mph WNW4.8 kmh WNW -- 30.24 in1024.0 mb 0.00 in0.0 mm 0.00 in0.0 mm 0.00 in0.0 mm
03:40 AM 15.3°F-9.3°C 13.6°F-10.2°C 93% 2.0 mph WNW3.2 kmh WNW -- 30.24 in1024.0 mb 0.00 in0.0 mm 0.00 in0.0 mm 0.00 in0.0 mm
03:39 AM 15.2°F-9.3°C 13.6°F-10.2°C 93% 2.0 mph WNW3.2 kmh WNW -- 30.24 in1024.0 mb 0.00 in0.0 mm 0.00 in0.0 mm 0.00 in0.0 mm
03:38 AM 15.2°F-9.3°C 13.6°F-10.2°C 93% 3.0 mph WNW4.8 kmh WNW -- 30.24 in1024.0 mb 0.00 in0.0 mm 0.00 in0.0 mm 0.00 in0.0 mm
03:37 AM 15.2°F-9.3°C 13.6°F-10.2°C 93% 2.0 mph WNW3.2 kmh WNW -- 30.24 in1024.0 mb 0.00 in0.0 mm 0.00 in0.0 mm 0.00 in0.0 mm
03:36 AM 15.2°F-9.3°C 13.6°F-10.2°C 93% 2.0 mph W3.2 kmh W -- 30.24 in1024.0 mb 0.00 in0.0 mm 0.00 in0.0 mm 0.00 in0.0 mm
03:35 AM 15.2°F-9.3°C 13.6°F-10.2°C 93% 2.0 mph WNW3.2 kmh WNW -- 30.24 in1024.0 mb 0.00 in0.0 mm 0.00 in0.0 mm 0.00 in0.0 mm
03:34 AM 15.2°F-9.3°C 13.6°F-10.2°C 93% 2.0 mph W3.2 kmh W -- 30.24 in1024.0 mb 0.00 in0.0 mm 0.00 in0.0 mm 0.00 in0.0 mm
03:33 AM 15.2°F-9.3°C 13.6°F-10.2°C 93% 3.0 mph WNW4.8 kmh WNW -- 30.24 in1024.0 mb 0.00 in0.0 mm 0.00 in0.0 mm 0.00 in0.0 mm
03:32 AM 15.0°F-9.4°C 13.4°F-10.3°C 93% 3.0 mph WNW4.8 kmh WNW -- 30.24 in1024.0 mb 0.00 in0.0 mm 0.00 in0.0 mm 0.00 in0.0 mm
03:29 AM 15.0°F-9.4°C 13.9°F-10.1°C 95% 3.0 mph WNW4.8 kmh WNW -- 30.24 in1024.0 mb 0.00 in0.0 mm 0.00 in0.0 mm 0.00 in0.0 mm
03:27 AM 14.9°F-9.5°C 13.7°F-10.2°C 95% 3.0 mph NW4.8 kmh NW -- 30.24 in1024.0 mb 0.00 in0.0 mm 0.00 in0.0 mm 0.00 in0.0 mm
03:26 AM 14.9°F-9.5°C 13.7°F-10.2°C 95% 2.0 mph NW3.2 kmh NW -- 30.24 in1024.0 mb 0.00 in0.0 mm 0.00 in0.0 mm 0.00 in0.0 mm
03:22 AM 14.7°F-9.6°C 13.5°F-10.3°C 95% 2.0 mph WNW3.2 kmh WNW -- 30.25 in1024.4 mb 0.00 in0.0 mm 0.00 in0.0 mm 0.00 in0.0 mm
03:21 AM 14.7°F-9.6°C 13.5°F-10.3°C 95% 2.0 mph WNW3.2 kmh WNW -- 30.24 in1024.0 mb 0.00 in0.0 mm 0.00 in0.0 mm 0.00 in0.0 mm
03:20 AM 14.7°F-9.6°C 13.5°F-10.3°C 95% 2.0 mph WNW3.2 kmh WNW -- 30.25 in1024.4 mb 0.00 in0.0 mm 0.00 in0.0 mm 0.00 in0.0 mm
03:19 AM 14.7°F-9.6°C 13.5°F-10.3°C 95% 2.0 mph WNW3.2 kmh WNW -- 30.24 in1024.0 mb 0.00 in0.0 mm 0.00 in0.0 mm 0.00 in0.0 mm
03:18 AM 14.7°F-9.6°C 13.5°F-10.3°C 95% 2.0 mph WNW3.2 kmh WNW -- 30.25 in1024.4 mb 0.00 in0.0 mm 0.00 in0.0 mm 0.00 in0.0 mm
03:17 AM 14.7°F-9.6°C 13.5°F-10.3°C 95% 2.0 mph W3.2 kmh W -- 30.25 in1024.4 mb 0.00 in0.0 mm 0.00 in0.0 mm 0.00 in0.0 mm
03:16 AM 14.7°F-9.6°C 13.5°F-10.3°C 95% Calm Calm -- 30.25 in1024.4 mb 0.00 in0.0 mm 0.00 in0.0 mm 0.00 in0.0 mm
03:14 AM 14.7°F-9.6°C 13.5°F-10.3°C 95% Calm Calm -- 30.25 in1024.4 mb 0.00 in0.0 mm 0.00 in0.0 mm 0.00 in0.0 mm
03:13 AM 14.7°F-9.6°C 13.8°F-10.1°C 96% Calm Calm -- 30.25 in1024.4 mb 0.00 in0.0 mm 0.00 in0.0 mm 0.00 in0.0 mm
03:08 AM 14.7°F-9.6°C 13.8°F-10.1°C 96% Calm Calm -- 30.25 in1024.4 mb 0.00 in0.0 mm 0.00 in0.0 mm 0.00 in0.0 mm
03:06 AM 14.3°F-9.8°C 13.4°F-10.3°C 96% Calm Calm -- 30.25 in1024.4 mb 0.00 in0.0 mm 0.00 in0.0 mm 0.00 in0.0 mm
03:04 AM 14.1°F-9.9°C 13.2°F-10.4°C 96% Calm Calm -- 30.25 in1024.4 mb 0.00 in0.0 mm 0.00 in0.0 mm 0.00 in0.0 mm
03:03 AM 14.1°F-9.9°C 13.2°F-10.4°C 96% Calm Calm -- 30.25 in1024.4 mb 0.00 in0.0 mm 0.00 in0.0 mm 0.00 in0.0 mm
03:02 AM 13.9°F-10.1°C 12.6°F-10.8°C 95% Calm Calm -- 30.25 in1024.4 mb 0.00 in0.0 mm 0.00 in0.0 mm 0.00 in0.0 mm
03:01 AM 13.7°F-10.2°C 12.5°F-10.8°C 95% Calm Calm -- 30.25 in1024.4 mb 0.00 in0.0 mm 0.00 in0.0 mm 0.00 in0.0 mm
02:57 AM 13.7°F-10.2°C 12.5°F-10.8°C 95% Calm Calm -- 30.25 in1024.4 mb 0.00 in0.0 mm 0.00 in0.0 mm 0.00 in0.0 mm
02:56 AM 13.5°F-10.3°C 12.3°F-10.9°C 95% Calm Calm -- 30.25 in1024.4 mb 0.00 in0.0 mm 0.00 in0.0 mm 0.00 in0.0 mm
02:55 AM 13.5°F-10.3°C 11.8°F-11.2°C 93% Calm Calm -- 30.25 in1024.4 mb 0.00 in0.0 mm 0.00 in0.0 mm 0.00 in0.0 mm
02:53 AM 13.5°F-10.3°C 11.8°F-11.2°C 93% Calm Calm -- 30.25 in1024.4 mb 0.00 in0.0 mm 0.00 in0.0 mm 0.00 in0.0 mm
02:52 AM 13.6°F-10.2°C 12.0°F-11.1°C 93% Calm Calm -- 30.25 in1024.4 mb 0.00 in0.0 mm 0.00 in0.0 mm 0.00 in0.0 mm
02:51 AM 13.6°F-10.2°C 12.0°F-11.1°C 93% Calm Calm -- 30.25 in1024.4 mb 0.00 in0.0 mm 0.00 in0.0 mm 0.00 in0.0 mm
02:48 AM 13.7°F-10.2°C 12.0°F-11.1°C 93% Calm Calm -- 30.26 in1024.7 mb 0.00 in0.0 mm 0.00 in0.0 mm 0.00 in0.0 mm
02:47 AM 13.7°F-10.2°C 12.0°F-11.1°C 93% Calm Calm -- 30.25 in1024.4 mb 0.00 in0.0 mm 0.00 in0.0 mm 0.00 in0.0 mm
02:43 AM 13.7°F-10.2°C 12.0°F-11.1°C 93% Calm Calm -- 30.26 in1024.7 mb 0.00 in0.0 mm 0.00 in0.0 mm 0.00 in0.0 mm
02:42 AM 13.9°F-10.1°C 12.1°F-11.1°C 93% Calm Calm -- 30.26 in1024.7 mb 0.00 in0.0 mm 0.00 in0.0 mm 0.00 in0.0 mm
02:41 AM 14.1°F-9.9°C 12.5°F-10.8°C 93% Calm Calm -- 30.26 in1024.7 mb 0.00 in0.0 mm 0.00 in0.0 mm 0.00 in0.0 mm
02:40 AM 14.1°F-9.9°C 12.5°F-10.8°C 93% Calm Calm -- 30.26 in1024.7 mb 0.00 in0.0 mm 0.00 in0.0 mm 0.00 in0.0 mm
02:39 AM 14.1°F-9.9°C 12.5°F-10.8°C 93% Calm Calm -- 30.26 in1024.7 mb 0.00 in0.0 mm 0.00 in0.0 mm 0.00 in0.0 mm
02:37 AM 14.1°F-9.9°C 12.5°F-10.8°C 93% Calm Calm -- 30.26 in1024.7 mb 0.00 in0.0 mm 0.00 in0.0 mm 0.00 in0.0 mm
02:36 AM 14.3°F-9.8°C 12.7°F-10.7°C 93% Calm Calm -- 30.26 in1024.7 mb 0.00 in0.0 mm 0.00 in0.0 mm 0.00 in0.0 mm
02:35 AM 14.3°F-9.8°C 13.2°F-10.4°C 95% Calm Calm -- 30.26 in1024.7 mb 0.00 in0.0 mm 0.00 in0.0 mm 0.00 in0.0 mm
02:34 AM 14.5°F-9.7°C 13.4°F-10.3°C 95% Calm Calm -- 30.26 in1024.7 mb 0.00 in0.0 mm 0.00 in0.0 mm 0.00 in0.0 mm
02:33 AM 14.5°F-9.7°C 13.4°F-10.3°C 95% Calm Calm -- 30.26 in1024.7 mb 0.00 in0.0 mm 0.00 in0.0 mm 0.00 in0.0 mm
02:32 AM 14.5°F-9.7°C 13.4°F-10.3°C 95% Calm Calm -- 30.26 in1024.7 mb 0.00 in0.0 mm 0.00 in0.0 mm 0.00 in0.0 mm
02:31 AM 14.5°F-9.7°C 13.4°F-10.3°C 95% Calm Calm -- 30.26 in1024.7 mb 0.00 in0.0 mm 0.00 in0.0 mm 0.00 in0.0 mm
02:29 AM 14.5°F-9.7°C 13.4°F-10.3°C 95% 1.0 mph WNW1.6 kmh WNW -- 30.26 in1024.7 mb 0.00 in0.0 mm 0.00 in0.0 mm 0.00 in0.0 mm
02:28 AM 14.5°F-9.7°C 13.4°F-10.3°C 95% 2.0 mph NW3.2 kmh NW -- 30.26 in1024.7 mb 0.00 in0.0 mm 0.00 in0.0 mm 0.00 in0.0 mm
02:26 AM 14.3°F-9.8°C 13.2°F-10.4°C 95% 2.0 mph NW3.2 kmh NW -- 30.26 in1024.7 mb 0.00 in0.0 mm 0.00 in0.0 mm 0.00 in0.0 mm
02:25 AM 14.1°F-9.9°C 13.0°F-10.6°C 95% 2.0 mph NW3.2 kmh NW -- 30.26 in1024.7 mb 0.00 in0.0 mm 0.00 in0.0 mm 0.00 in0.0 mm
02:24 AM 14.1°F-9.9°C 13.0°F-10.6°C 95% 2.0 mph WNW3.2 kmh WNW -- 30.26 in1024.7 mb 0.00 in0.0 mm 0.00 in0.0 mm 0.00 in0.0 mm
02:22 AM 14.1°F-9.9°C 13.0°F-10.6°C 95% 2.0 mph NW3.2 kmh NW -- 30.26 in1024.7 mb 0.00 in0.0 mm 0.00 in0.0 mm 0.00 in0.0 mm
02:21 AM 14.1°F-9.9°C 13.0°F-10.6°C 95% 1.0 mph NNW1.6 kmh NNW -- 30.26 in1024.7 mb 0.00 in0.0 mm 0.00 in0.0 mm 0.00 in0.0 mm
02:20 AM 14.1°F-9.9°C 13.0°F-10.6°C 95% 1.0 mph NW1.6 kmh NW -- 30.27 in1025.1 mb 0.00 in0.0 mm 0.00 in0.0 mm 0.00 in0.0 mm
02:19 AM 14.1°F-9.9°C 13.0°F-10.6°C 95% 2.0 mph NNW3.2 kmh NNW -- 30.27 in1025.1 mb 0.00 in0.0 mm 0.00 in0.0 mm 0.00 in0.0 mm
02:18 AM 14.1°F-9.9°C 13.0°F-10.6°C 95% 2.0 mph NNW3.2 kmh NNW -- 30.26 in1024.7 mb 0.00 in0.0 mm 0.00 in0.0 mm 0.00 in0.0 mm
02:17 AM 14.1°F-9.9°C 13.0°F-10.6°C 95% 2.0 mph NW3.2 kmh NW -- 30.26 in1024.7 mb 0.00 in0.0 mm 0.00 in0.0 mm 0.00 in0.0 mm
02:16 AM 13.9°F-10.1°C 12.6°F-10.8°C 95% 2.0 mph NW3.2 kmh NW -- 30.27 in1025.1 mb 0.00 in0.0 mm 0.00 in0.0 mm 0.00 in0.0 mm
02:15 AM 13.9°F-10.1°C 12.6°F-10.8°C 95% 2.0 mph WNW3.2 kmh WNW -- 30.27 in1025.1 mb 0.00 in0.0 mm 0.00 in0.0 mm 0.00 in0.0 mm
02:14 AM 13.7°F-10.2°C 12.5°F-10.8°C 95% 2.0 mph NW3.2 kmh NW -- 30.26 in1024.7 mb 0.00 in0.0 mm 0.00 in0.0 mm 0.00 in0.0 mm
02:13 AM 13.7°F-10.2°C 12.5°F-10.8°C 95% 2.0 mph NW3.2 kmh NW -- 30.27 in1025.1 mb 0.00 in0.0 mm 0.00 in0.0 mm 0.00 in0.0 mm
02:12 AM 13.7°F-10.2°C 12.5°F-10.8°C 95% 2.0 mph NW3.2 kmh NW -- 30.26 in1024.7 mb 0.00 in0.0 mm 0.00 in0.0 mm 0.00 in0.0 mm
02:11 AM 13.7°F-10.2°C 12.5°F-10.8°C 95% 2.0 mph NW3.2 kmh NW -- 30.27 in1025.1 mb 0.00 in0.0 mm 0.00 in0.0 mm 0.00 in0.0 mm
02:10 AM 13.6°F-10.2°C 12.5°F-10.8°C 95% 2.0 mph NW3.2 kmh NW -- 30.27 in1025.1 mb 0.00 in0.0 mm 0.00 in0.0 mm 0.00 in0.0 mm
02:07 AM 13.6°F-10.2°C 12.5°F-10.8°C 95% 2.0 mph WNW3.2 kmh WNW -- 30.27 in1025.1 mb 0.00 in0.0 mm 0.00 in0.0 mm 0.00 in0.0 mm
02:06 AM 13.6°F-10.2°C 12.5°F-10.8°C 95% 2.0 mph NW3.2 kmh NW -- 30.27 in1025.1 mb 0.00 in0.0 mm 0.00 in0.0 mm 0.00 in0.0 mm
02:05 AM 13.6°F-10.2°C 12.5°F-10.8°C 95% 1.0 mph WNW1.6 kmh WNW -- 30.27 in1025.1 mb 0.00 in0.0 mm 0.00 in0.0 mm 0.00 in0.0 mm
02:04 AM 13.6°F-10.2°C 12.5°F-10.8°C 95% 2.0 mph WNW3.2 kmh WNW -- 30.27 in1025.1 mb 0.00 in0.0 mm 0.00 in0.0 mm 0.00 in0.0 mm
02:03 AM 13.6°F-10.2°C 12.5°F-10.8°C 95% 2.0 mph W3.2 kmh W -- 30.26 in1024.7 mb 0.00 in0.0 mm 0.00 in0.0 mm 0.00 in0.0 mm
02:01 AM 13.6°F-10.2°C 12.5°F-10.8°C 95% Calm Calm -- 30.27 in1025.1 mb 0.00 in0.0 mm 0.00 in0.0 mm 0.00 in0.0 mm
01:59 AM 13.6°F-10.2°C 12.5°F-10.8°C 95% Calm Calm -- 30.27 in1025.1 mb 0.00 in0.0 mm 0.00 in0.0 mm 0.00 in0.0 mm
01:57 AM 13.7°F-10.2°C 12.5°F-10.8°C 95% Calm Calm -- 30.27 in1025.1 mb 0.00 in0.0 mm 0.00 in0.0 mm 0.00 in0.0 mm
01:55 AM 13.7°F-10.2°C 12.5°F-10.8°C 95% Calm Calm -- 30.28 in1025.4 mb 0.00 in0.0 mm 0.00 in0.0 mm 0.00 in0.0 mm
01:54 AM 13.9°F-10.1°C 12.6°F-10.8°C 95% Calm Calm -- 30.27 in1025.1 mb 0.00 in0.0 mm 0.00 in0.0 mm 0.00 in0.0 mm
01:53 AM 13.9°F-10.1°C 12.6°F-10.8°C 95% Calm Calm -- 30.28 in1025.4 mb 0.00 in0.0 mm 0.00 in0.0 mm 0.00 in0.0 mm
01:52 AM 13.9°F-10.1°C 12.6°F-10.8°C 95% Calm Calm -- 30.27 in1025.1 mb 0.00 in0.0 mm 0.00 in0.0 mm 0.00 in0.0 mm
01:51 AM 14.1°F-9.9°C 13.0°F-10.6°C 95% Calm Calm -- 30.27 in1025.1 mb 0.00 in0.0 mm 0.00 in0.0 mm 0.00 in0.0 mm
01:50 AM 14.1°F-9.9°C 13.0°F-10.6°C 95% Calm Calm -- 30.28 in1025.4 mb 0.00 in0.0 mm 0.00 in0.0 mm 0.00 in0.0 mm
01:49 AM 14.1°F-9.9°C 13.0°F-10.6°C 95% Calm Calm -- 30.28 in1025.4 mb 0.00 in0.0 mm 0.00 in0.0 mm 0.00 in0.0 mm
01:48 AM 14.1°F-9.9°C 13.0°F-10.6°C 95% Calm Calm -- 30.27 in1025.1 mb 0.00 in0.0 mm 0.00 in0.0 mm 0.00 in0.0 mm
01:46 AM 14.1°F-9.9°C 13.0°F-10.6°C 95% Calm Calm -- 30.27 in1025.1 mb 0.00 in0.0 mm 0.00 in0.0 mm 0.00 in0.0 mm
01:45 AM 14.1°F-9.9°C 13.0°F-10.6°C 95% Calm Calm -- 30.28 in1025.4 mb 0.00 in0.0 mm 0.00 in0.0 mm 0.00 in0.0 mm
01:43 AM 14.3°F-9.8°C 13.2°F-10.4°C 95% Calm Calm -- 30.27 in1025.1 mb 0.00 in0.0 mm 0.00 in0.0 mm 0.00 in0.0 mm
01:42 AM 14.3°F-9.8°C 13.2°F-10.4°C 95% Calm Calm -- 30.28 in1025.4 mb 0.00 in0.0 mm 0.00 in0.0 mm 0.00 in0.0 mm
01:41 AM 14.3°F-9.8°C 13.2°F-10.4°C 95% Calm Calm -- 30.28 in1025.4 mb 0.00 in0.0 mm 0.00 in0.0 mm 0.00 in0.0 mm
01:37 AM 14.3°F-9.8°C 13.2°F-10.4°C 95% Calm Calm -- 30.28 in1025.4 mb 0.00 in0.0 mm 0.00 in0.0 mm 0.00 in0.0 mm
01:35 AM 14.5°F-9.7°C 13.4°F-10.3°C 95% Calm Calm -- 30.28 in1025.4 mb 0.00 in0.0 mm 0.00 in0.0 mm 0.00 in0.0 mm
01:33 AM 14.7°F-9.6°C 13.5°F-10.3°C 95% Calm Calm -- 30.28 in1025.4 mb 0.00 in0.0 mm 0.00 in0.0 mm 0.00 in0.0 mm
01:32 AM 14.7°F-9.6°C 13.5°F-10.3°C 95% Calm Calm -- 30.28 in1025.4 mb 0.00 in0.0 mm 0.00 in0.0 mm 0.00 in0.0 mm
01:30 AM 14.7°F-9.6°C 13.5°F-10.3°C 95% Calm Calm -- 30.28 in1025.4 mb 0.00 in0.0 mm 0.00 in0.0 mm 0.00 in0.0 mm
01:29 AM 14.7°F-9.6°C 13.5°F-10.3°C 95% 1.0 mph NW1.6 kmh NW -- 30.28 in1025.4 mb 0.00 in0.0 mm 0.00 in0.0 mm 0.00 in0.0 mm
01:27 AM 14.7°F-9.6°C 13.5°F-10.3°C 95% 1.0 mph WNW1.6 kmh WNW -- 30.28 in1025.4 mb 0.00 in0.0 mm 0.00 in0.0 mm 0.00 in0.0 mm
01:26 AM 14.7°F-9.6°C 13.5°F-10.3°C 95% 1.0 mph WNW1.6 kmh WNW -- 30.29 in1025.7 mb 0.00 in0.0 mm 0.00 in0.0 mm 0.00 in0.0 mm
01:25 AM 14.7°F-9.6°C 13.5°F-10.3°C 95% 2.0 mph W3.2 kmh W -- 30.29 in1025.7 mb 0.00 in0.0 mm 0.00 in0.0 mm 0.00 in0.0 mm
01:23 AM 14.7°F-9.6°C 13.5°F-10.3°C 95% Calm Calm -- 30.29 in1025.7 mb 0.00 in0.0 mm 0.00 in0.0 mm 0.00 in0.0 mm
01:22 AM 14.7°F-9.6°C 13.5°F-10.3°C 95% Calm Calm -- 30.29 in1025.7 mb 0.00 in0.0 mm 0.00 in0.0 mm 0.00 in0.0 mm
01:21 AM 14.7°F-9.6°C 13.5°F-10.3°C 95% Calm Calm -- 30.29 in1025.7 mb 0.00 in0.0 mm 0.00 in0.0 mm 0.00 in0.0 mm
01:20 AM 14.9°F-9.5°C 13.7°F-10.2°C 95% Calm Calm -- 30.28 in1025.4 mb 0.00 in0.0 mm 0.00 in0.0 mm 0.00 in0.0 mm
01:19 AM 14.9°F-9.5°C 13.7°F-10.2°C 95% Calm Calm -- 30.29 in1025.7 mb 0.00 in0.0 mm 0.00 in0.0 mm 0.00 in0.0 mm
01:17 AM 14.9°F-9.5°C 13.2°F-10.4°C 93% Calm Calm -- 30.29 in1025.7 mb 0.00 in0.0 mm 0.00 in0.0 mm 0.00 in0.0 mm
01:13 AM 14.9°F-9.5°C 13.2°F-10.4°C 93% Calm Calm -- 30.29 in1025.7 mb 0.00 in0.0 mm 0.00 in0.0 mm 0.00 in0.0 mm
01:11 AM 15.0°F-9.4°C 13.4°F-10.3°C 93% Calm Calm -- 30.29 in1025.7 mb 0.00 in0.0 mm 0.00 in0.0 mm 0.00 in0.0 mm
01:10 AM 15.0°F-9.4°C 13.4°F-10.3°C 93% Calm Calm -- 30.29 in1025.7 mb 0.00 in0.0 mm 0.00 in0.0 mm 0.00 in0.0 mm
01:08 AM 15.0°F-9.4°C 13.4°F-10.3°C 93% Calm Calm -- 30.29 in1025.7 mb 0.00 in0.0 mm 0.00 in0.0 mm 0.00 in0.0 mm
01:07 AM 15.0°F-9.4°C 13.4°F-10.3°C 93% Calm Calm -- 30.29 in1025.7 mb 0.00 in0.0 mm 0.00 in0.0 mm 0.00 in0.0 mm
01:06 AM 15.0°F-9.4°C 13.4°F-10.3°C 93% Calm Calm -- 30.29 in1025.7 mb 0.00 in0.0 mm 0.00 in0.0 mm 0.00 in0.0 mm
01:05 AM 15.0°F-9.4°C 13.4°F-10.3°C 93% Calm Calm -- 30.29 in1025.7 mb 0.00 in0.0 mm 0.00 in0.0 mm 0.00 in0.0 mm
01:04 AM 15.2°F-9.3°C 13.6°F-10.2°C 93% Calm Calm -- 30.29 in1025.7 mb 0.00 in0.0 mm 0.00 in0.0 mm 0.00 in0.0 mm
01:02 AM 15.2°F-9.3°C 13.6°F-10.2°C 93% Calm Calm -- 30.29 in1025.7 mb 0.00 in0.0 mm 0.00 in0.0 mm 0.00 in0.0 mm
12:59 AM 15.3°F-9.3°C 13.6°F-10.2°C 93% Calm Calm -- 30.29 in1025.7 mb 0.00 in0.0 mm 0.00 in0.0 mm 0.00 in0.0 mm
12:58 AM 15.6°F-9.1°C 13.9°F-10.1°C 93% Calm Calm -- 30.29 in1025.7 mb 0.00 in0.0 mm 0.00 in0.0 mm 0.00 in0.0 mm
12:54 AM 15.6°F-9.1°C 14.4°F-9.8°C 95% Calm Calm -- 30.29 in1025.7 mb 0.00 in0.0 mm 0.00 in0.0 mm 0.00 in0.0 mm
12:53 AM 15.8°F-9.0°C 14.6°F-9.7°C 95% Calm Calm -- 30.29 in1025.7 mb 0.00 in0.0 mm 0.00 in0.0 mm 0.00 in0.0 mm
12:51 AM 15.8°F-9.0°C 14.6°F-9.7°C 95% Calm Calm -- 30.29 in1025.7 mb 0.00 in0.0 mm 0.00 in0.0 mm 0.00 in0.0 mm
12:50 AM 15.9°F-8.9°C 14.8°F-9.6°C 95% Calm Calm -- 30.29 in1025.7 mb 0.00 in0.0 mm 0.00 in0.0 mm 0.00 in0.0 mm
12:49 AM 15.9°F-8.9°C 14.8°F-9.6°C 95% Calm Calm -- 30.29 in1025.7 mb 0.00 in0.0 mm 0.00 in0.0 mm 0.00 in0.0 mm
12:48 AM 15.9°F-8.9°C 14.8°F-9.6°C 95% Calm Calm -- 30.29 in1025.7 mb 0.00 in0.0 mm 0.00 in0.0 mm 0.00 in0.0 mm
12:47 AM 15.9°F-8.9°C 14.8°F-9.6°C 95% Calm Calm -- 30.29 in1025.7 mb 0.00 in0.0 mm 0.00 in0.0 mm 0.00 in0.0 mm
12:46 AM 16.2°F-8.8°C 15.0°F-9.4°C 95% Calm Calm -- 30.29 in1025.7 mb 0.00 in0.0 mm 0.00 in0.0 mm 0.00 in0.0 mm
12:45 AM 16.2°F-8.8°C 15.0°F-9.4°C 95% Calm Calm -- 30.29 in1025.7 mb 0.00 in0.0 mm 0.00 in0.0 mm 0.00 in0.0 mm
12:44 AM 16.2°F-8.8°C 15.2°F-9.3°C 96% Calm Calm -- 30.29 in1025.7 mb 0.00 in0.0 mm 0.00 in0.0 mm 0.00 in0.0 mm
12:42 AM 16.2°F-8.8°C 15.2°F-9.3°C 96% Calm Calm -- 30.29 in1025.7 mb 0.00 in0.0 mm 0.00 in0.0 mm 0.00 in0.0 mm
12:41 AM 16.2°F-8.8°C 15.2°F-9.3°C 96% 1.0 mph WSW1.6 kmh WSW -- 30.29 in1025.7 mb 0.00 in0.0 mm 0.00 in0.0 mm 0.00 in0.0 mm
12:40 AM 16.2°F-8.8°C 15.2°F-9.3°C 96% 1.0 mph W1.6 kmh W -- 30.29 in1025.7 mb 0.00 in0.0 mm 0.00 in0.0 mm 0.00 in0.0 mm
12:39 AM 16.2°F-8.8°C 15.2°F-9.3°C 96% 2.0 mph W3.2 kmh W -- 30.29 in1025.7 mb 0.00 in0.0 mm 0.00 in0.0 mm 0.00 in0.0 mm
12:38 AM 16.2°F-8.8°C 15.2°F-9.3°C 96% 1.0 mph WSW1.6 kmh WSW -- 30.29 in1025.7 mb 0.00 in0.0 mm 0.00 in0.0 mm 0.00 in0.0 mm
12:37 AM 16.2°F-8.8°C 15.2°F-9.3°C 96% 3.0 mph W4.8 kmh W -- 30.29 in1025.7 mb 0.00 in0.0 mm 0.00 in0.0 mm 0.00 in0.0 mm
12:36 AM 16.2°F-8.8°C 15.2°F-9.3°C 96% 2.0 mph WSW3.2 kmh WSW -- 30.29 in1025.7 mb 0.00 in0.0 mm 0.00 in0.0 mm 0.00 in0.0 mm
12:35 AM 16.2°F-8.8°C 15.2°F-9.3°C 96% 3.0 mph W4.8 kmh W -- 30.29 in1025.7 mb 0.00 in0.0 mm 0.00 in0.0 mm 0.00 in0.0 mm
12:33 AM 15.9°F-8.9°C 15.0°F-9.4°C 96% 3.0 mph W4.8 kmh W -- 30.29 in1025.7 mb 0.00 in0.0 mm 0.00 in0.0 mm 0.00 in0.0 mm
12:32 AM 15.8°F-9.0°C 14.8°F-9.6°C 96% 3.0 mph W4.8 kmh W -- 30.29 in1025.7 mb 0.00 in0.0 mm 0.00 in0.0 mm 0.00 in0.0 mm
12:30 AM 15.8°F-9.0°C 14.8°F-9.6°C 96% 2.0 mph W3.2 kmh W -- 30.29 in1025.7 mb 0.00 in0.0 mm 0.00 in0.0 mm 0.00 in0.0 mm
12:29 AM 15.8°F-9.0°C 15.3°F-9.3°C 98% 2.0 mph W3.2 kmh W -- 30.29 in1025.7 mb 0.00 in0.0 mm 0.00 in0.0 mm 0.00 in0.0 mm
12:28 AM 15.6°F-9.1°C 15.1°F-9.4°C 98% 3.0 mph W4.8 kmh W -- 30.29 in1025.7 mb 0.00 in0.0 mm 0.00 in0.0 mm 0.00 in0.0 mm
12:27 AM 15.6°F-9.1°C 15.1°F-9.4°C 98% 2.0 mph W3.2 kmh W -- 30.29 in1025.7 mb 0.00 in0.0 mm 0.00 in0.0 mm 0.00 in0.0 mm
12:26 AM 15.3°F-9.3°C 14.8°F-9.6°C 98% 4.0 mph W6.4 kmh W -- 30.29 in1025.7 mb 0.00 in0.0 mm 0.00 in0.0 mm 0.00 in0.0 mm
12:25 AM 15.3°F-9.3°C 14.8°F-9.6°C 98% 3.0 mph W4.8 kmh W -- 30.29 in1025.7 mb 0.00 in0.0 mm 0.00 in0.0 mm 0.00 in0.0 mm
12:23 AM 15.2°F-9.3°C 14.8°F-9.6°C 98% 3.0 mph W4.8 kmh W -- 30.29 in1025.7 mb 0.00 in0.0 mm 0.00 in0.0 mm 0.00 in0.0 mm
12:22 AM 15.2°F-9.3°C 14.8°F-9.6°C 98% 1.0 mph W1.6 kmh W -- 30.29 in1025.7 mb 0.00 in0.0 mm 0.00 in0.0 mm 0.00 in0.0 mm
12:21 AM 15.2°F-9.3°C 14.8°F-9.6°C 98% 2.0 mph W3.2 kmh W -- 30.29 in1025.7 mb 0.00 in0.0 mm 0.00 in0.0 mm 0.00 in0.0 mm
12:20 AM 15.0°F-9.4°C 14.6°F-9.7°C 98% 3.0 mph W4.8 kmh W -- 30.29 in1025.7 mb 0.00 in0.0 mm 0.00 in0.0 mm 0.00 in0.0 mm
12:19 AM 15.0°F-9.4°C 14.6°F-9.7°C 98% 1.0 mph WNW1.6 kmh WNW -- 30.29 in1025.7 mb 0.00 in0.0 mm 0.00 in0.0 mm 0.00 in0.0 mm
12:18 AM 15.0°F-9.4°C 14.6°F-9.7°C 98% 1.0 mph W1.6 kmh W -- 30.29 in1025.7 mb 0.00 in0.0 mm 0.00 in0.0 mm 0.00 in0.0 mm
12:13 AM 15.0°F-9.4°C 14.6°F-9.7°C 98% 2.0 mph W3.2 kmh W -- 30.29 in1025.7 mb 0.00 in0.0 mm 0.00 in0.0 mm 0.00 in0.0 mm
12:12 AM 15.0°F-9.4°C 14.6°F-9.7°C 98% 1.0 mph W1.6 kmh W -- 30.29 in1025.7 mb 0.00 in0.0 mm 0.00 in0.0 mm 0.00 in0.0 mm
12:09 AM 15.0°F-9.4°C 14.6°F-9.7°C 98% Calm Calm -- 30.29 in1025.7 mb 0.00 in0.0 mm 0.00 in0.0 mm 0.00 in0.0 mm
12:08 AM 15.2°F-9.3°C 14.8°F-9.6°C 98% Calm Calm -- 30.29 in1025.7 mb 0.00 in0.0 mm 0.00 in0.0 mm 0.00 in0.0 mm
12:07 AM 15.2°F-9.3°C 14.8°F-9.6°C 98% Calm Calm -- 30.29 in1025.7 mb 0.00 in0.0 mm 0.00 in0.0 mm 0.00 in0.0 mm
12:06 AM 15.2°F-9.3°C 14.8°F-9.6°C 98% Calm Calm -- 30.29 in1025.7 mb 0.00 in0.0 mm 0.00 in0.0 mm 0.00 in0.0 mm
12:05 AM 15.2°F-9.3°C 14.8°F-9.6°C 98% Calm Calm -- 30.29 in1025.7 mb 0.00 in0.0 mm 0.00 in0.0 mm 0.00 in0.0 mm
12:04 AM 15.2°F-9.3°C 14.8°F-9.6°C 98% 1.0 mph W1.6 kmh W -- 30.29 in1025.7 mb 0.00 in0.0 mm 0.00 in0.0 mm 0.00 in0.0 mm
12:03 AM 15.2°F-9.3°C 14.8°F-9.6°C 98% 2.0 mph W3.2 kmh W -- 30.29 in1025.7 mb 0.00 in0.0 mm 0.00 in0.0 mm 0.00 in0.0 mm
12:02 AM 15.2°F-9.3°C 14.8°F-9.6°C 98% 1.0 mph W1.6 kmh W -- 30.29 in1025.7 mb 0.00 in0.0 mm 0.00 in0.0 mm 0.00 in0.0 mm
12:01 AM 15.2°F-9.3°C 14.8°F-9.6°C 98% 2.0 mph WNW3.2 kmh WNW -- 30.29 in1025.7 mb 0.00 in0.0 mm 0.00 in0.0 mm 0.00 in0.0 mm
12:00 AM 15.2°F-9.3°C 14.8°F-9.6°C 98% 2.0 mph W3.2 kmh W -- 30.30 in1026.1 mb 0.00 in0.0 mm 0.00 in0.0 mm 0.00 in0.0 mm